PWSweather.com
Personal Weather Stations
Station Observations
1A3COP
Copperhill Airport Community, Copperhill, TN 37317

Copperhill Airport CommunityCopperhill, TN 37317

Lat: 35.015465, Lon: -84.340598

Elevation: 1830

Station Type: Acurite Pro 5 in 1

Latest ConditionsUpdated 9:15:00 AM EST Tuesday, Dec 18, 2018
Currently Today's Max Today's Min Today's Average
Temperature 39.9°F4.4°C 39.9°F4.4°C 31.3°F-0.4°C 34.0°F1.1°C
Dew Point 36.1°F2.3°C 36.1°F2.3°C 31.1°F-0.5°C 33.1°F0.6°C
Winds 2.3 mph N3.7 kmh N 3.5 mph -5.6 kmh - - 0.3 mph 0.5 kmh
Wind Gusts 2.3 mph3.7 kmh 4.6 mph7.4 kmh - -
Humidity 86% 99% 86% 96%
Pressure 30.23 in1023.7 mb 30.23 in1023.7 mb 30.18 in1022.0 mb -
Hour Temp Dew Point Humidity Winds Wind Gusts Pressure Precip Precip Rate Daily Precip Total
09:15 AM 39.9°F4.4°C 36.1°F2.3°C 86% 2.3 mph N3.7 kmh N 2.3 mph3.7 kmh 30.23 in1023.7 mb - 0.00 in0.0 mm 0.00 in0.0 mm
09:14 AM 39.7°F4.3°C 36.1°F2.3°C 87% 2.3 mph N3.7 kmh N 2.3 mph3.7 kmh 30.22 in1023.4 mb - 0.00 in0.0 mm 0.00 in0.0 mm
09:13 AM 39.4°F4.1°C 35.9°F2.2°C 87% 2.3 mph N3.7 kmh N 2.3 mph3.7 kmh 30.22 in1023.4 mb - 0.00 in0.0 mm 0.00 in0.0 mm
09:12 AM 39.1°F3.9°C 35.9°F2.2°C 88% 1.2 mph NNW1.9 kmh NNW 2.3 mph3.7 kmh 30.22 in1023.4 mb - 0.00 in0.0 mm 0.00 in0.0 mm
09:11 AM 39.0°F3.9°C 35.7°F2.1°C 88% 2.3 mph NNE3.7 kmh NNE 2.3 mph3.7 kmh 30.22 in1023.4 mb - 0.00 in0.0 mm 0.00 in0.0 mm
09:10 AM 38.8°F3.8°C 35.6°F2.0°C 88% 2.3 mph N3.7 kmh N 2.3 mph3.7 kmh 30.22 in1023.4 mb - 0.00 in0.0 mm 0.00 in0.0 mm
09:09 AM 38.8°F3.8°C 35.5°F1.9°C 88% 2.3 mph N3.7 kmh N 3.5 mph5.6 kmh 30.22 in1023.4 mb - 0.00 in0.0 mm 0.00 in0.0 mm
09:08 AM 38.7°F3.7°C 35.5°F1.9°C 88% 2.3 mph NNW3.7 kmh NNW 3.5 mph5.6 kmh 30.22 in1023.4 mb - 0.00 in0.0 mm 0.00 in0.0 mm
09:07 AM 38.7°F3.7°C 35.5°F1.9°C 88% 2.3 mph NNW3.7 kmh NNW 2.3 mph3.7 kmh 30.22 in1023.4 mb - 0.00 in0.0 mm 0.00 in0.0 mm
09:06 AM 38.7°F3.7°C 35.5°F1.9°C 88% 2.3 mph N3.7 kmh N 2.3 mph3.7 kmh 30.22 in1023.4 mb - 0.00 in0.0 mm 0.00 in0.0 mm
09:05 AM 38.7°F3.7°C 35.7°F2.1°C 89% 2.3 mph N3.7 kmh N 2.3 mph3.7 kmh 30.22 in1023.4 mb - 0.00 in0.0 mm 0.00 in0.0 mm
09:04 AM 38.5°F3.6°C 35.5°F1.9°C 89% 3.5 mph N5.6 kmh N 4.6 mph7.4 kmh 30.22 in1023.4 mb - 0.00 in0.0 mm 0.00 in0.0 mm
09:03 AM 38.5°F3.6°C 35.5°F1.9°C 89% 2.3 mph N3.7 kmh N 4.6 mph7.4 kmh 30.22 in1023.4 mb - 0.00 in0.0 mm 0.00 in0.0 mm
09:02 AM 38.2°F3.4°C 35.5°F1.9°C 90% 2.3 mph N3.7 kmh N 3.5 mph5.6 kmh 30.22 in1023.4 mb - 0.00 in0.0 mm 0.00 in0.0 mm
09:01 AM 37.9°F3.3°C 35.5°F1.9°C 91% 2.3 mph N3.7 kmh N 3.5 mph5.6 kmh 30.22 in1023.4 mb - 0.00 in0.0 mm 0.00 in0.0 mm
09:00 AM 37.7°F3.2°C 35.3°F1.8°C 91% 2.3 mph N3.7 kmh N 3.5 mph5.6 kmh 30.22 in1023.4 mb - 0.00 in0.0 mm 0.00 in0.0 mm
08:59 AM 37.6°F3.1°C 35.5°F1.9°C 92% 2.3 mph N3.7 kmh N 3.5 mph5.6 kmh 30.22 in1023.4 mb - 0.00 in0.0 mm 0.00 in0.0 mm
08:58 AM 37.5°F3.1°C 35.4°F1.9°C 92% 2.3 mph NNW3.7 kmh NNW 2.3 mph3.7 kmh 30.22 in1023.4 mb - 0.00 in0.0 mm 0.00 in0.0 mm
08:57 AM 37.4°F3.0°C 35.6°F2.0°C 93% 1.2 mph NW1.9 kmh NW 2.3 mph3.7 kmh 30.22 in1023.4 mb - 0.00 in0.0 mm 0.00 in0.0 mm
08:56 AM 37.3°F2.9°C 35.5°F1.9°C 93% 2.3 mph WNW3.7 kmh WNW 2.3 mph3.7 kmh 30.22 in1023.4 mb - 0.00 in0.0 mm 0.00 in0.0 mm
08:55 AM 37.1°F2.8°C 35.2°F1.8°C 93% 2.3 mph NW3.7 kmh NW 2.3 mph3.7 kmh 30.22 in1023.4 mb - 0.00 in0.0 mm 0.00 in0.0 mm
08:54 AM 36.9°F2.7°C 35.4°F1.9°C 94% 2.3 mph NNW3.7 kmh NNW 2.3 mph3.7 kmh 30.22 in1023.4 mb - 0.00 in0.0 mm 0.00 in0.0 mm
08:53 AM 36.9°F2.7°C 35.3°F1.8°C 94% 2.3 mph NNW3.7 kmh NNW 2.3 mph3.7 kmh 30.22 in1023.4 mb - 0.00 in0.0 mm 0.00 in0.0 mm
08:52 AM 36.7°F2.6°C 35.4°F1.9°C 95% 2.3 mph N3.7 kmh N 2.3 mph3.7 kmh 30.22 in1023.4 mb - 0.00 in0.0 mm 0.00 in0.0 mm
08:51 AM 36.4°F2.4°C 35.4°F1.9°C 96% 1.2 mph NW1.9 kmh NW 2.3 mph3.7 kmh 30.22 in1023.4 mb - 0.00 in0.0 mm 0.00 in0.0 mm
08:50 AM 36.1°F2.3°C 35.4°F1.9°C 97% 1.2 mph NW1.9 kmh NW 1.2 mph1.9 kmh 30.22 in1023.4 mb - 0.00 in0.0 mm 0.00 in0.0 mm
08:49 AM 36.0°F2.2°C 35.2°F1.8°C 97% 1.2 mph N1.9 kmh N 1.2 mph1.9 kmh 30.22 in1023.4 mb - 0.00 in0.0 mm 0.00 in0.0 mm
08:48 AM 35.9°F2.2°C 35.2°F1.8°C 97% 1.2 mph N1.9 kmh N 1.2 mph1.9 kmh 30.22 in1023.4 mb - 0.00 in0.0 mm 0.00 in0.0 mm
08:47 AM 35.8°F2.1°C 35.3°F1.8°C 98% 1.2 mph NW1.9 kmh NW 1.2 mph1.9 kmh 30.22 in1023.4 mb - 0.00 in0.0 mm 0.00 in0.0 mm
08:46 AM 35.5°F1.9°C 35.2°F1.8°C 99% Calm Calm 1.2 mph1.9 kmh 30.22 in1023.4 mb - 0.00 in0.0 mm 0.00 in0.0 mm
08:45 AM 35.2°F1.8°C 34.9°F1.6°C 99% Calm Calm -- 30.22 in1023.4 mb - 0.00 in0.0 mm 0.00 in0.0 mm
08:44 AM 35.1°F1.7°C 34.8°F1.6°C 99% 1.2 mph WNW1.9 kmh WNW 1.2 mph1.9 kmh 30.22 in1023.4 mb - 0.00 in0.0 mm 0.00 in0.0 mm
08:43 AM 34.8°F1.6°C 34.6°F1.4°C 99% 1.2 mph NW1.9 kmh NW 1.2 mph1.9 kmh 30.22 in1023.4 mb - 0.00 in0.0 mm 0.00 in0.0 mm
08:42 AM 34.7°F1.5°C 34.4°F1.3°C 99% 1.2 mph N1.9 kmh N 1.2 mph1.9 kmh 30.22 in1023.4 mb - 0.00 in0.0 mm 0.00 in0.0 mm
08:41 AM 34.4°F1.3°C 34.1°F1.2°C 99% 1.2 mph N1.9 kmh N 2.3 mph3.7 kmh 30.22 in1023.4 mb - 0.00 in0.0 mm 0.00 in0.0 mm
08:40 AM 34.1°F1.2°C 33.9°F1.1°C 99% 1.2 mph NNE1.9 kmh NNE 1.2 mph1.9 kmh 30.22 in1023.4 mb - 0.00 in0.0 mm 0.00 in0.0 mm
08:39 AM 33.9°F1.1°C 33.6°F0.9°C 99% 1.2 mph N1.9 kmh N 1.2 mph1.9 kmh 30.22 in1023.4 mb - 0.00 in0.0 mm 0.00 in0.0 mm
08:38 AM 33.7°F0.9°C 33.4°F0.8°C 99% Calm Calm 1.2 mph1.9 kmh 30.21 in1023.0 mb - 0.00 in0.0 mm 0.00 in0.0 mm
08:37 AM 33.5°F0.8°C 33.3°F0.7°C 99% Calm Calm -- 30.21 in1023.0 mb - 0.00 in0.0 mm 0.00 in0.0 mm
08:36 AM 33.4°F0.8°C 33.1°F0.6°C 99% Calm Calm -- 30.21 in1023.0 mb - 0.00 in0.0 mm 0.00 in0.0 mm
08:35 AM 33.4°F0.8°C 33.1°F0.6°C 99% Calm Calm -- 30.21 in1023.0 mb - 0.00 in0.0 mm 0.00 in0.0 mm
08:34 AM 33.3°F0.7°C 33.0°F0.6°C 99% Calm Calm -- 30.21 in1023.0 mb - 0.00 in0.0 mm 0.00 in0.0 mm
08:33 AM 33.1°F0.6°C 32.9°F0.5°C 99% Calm Calm -- 30.21 in1023.0 mb - 0.00 in0.0 mm 0.00 in0.0 mm
08:32 AM 33.0°F0.6°C 32.8°F0.4°C 99% Calm Calm -- 30.21 in1023.0 mb - 0.00 in0.0 mm 0.00 in0.0 mm
08:31 AM 32.9°F0.5°C 32.7°F0.4°C 99% Calm Calm -- 30.21 in1023.0 mb - 0.00 in0.0 mm 0.00 in0.0 mm
08:30 AM 32.8°F0.4°C 32.5°F0.3°C 99% Calm Calm -- 30.21 in1023.0 mb - 0.00 in0.0 mm 0.00 in0.0 mm
08:29 AM 32.7°F0.4°C 32.5°F0.3°C 99% Calm Calm -- 30.21 in1023.0 mb - 0.00 in0.0 mm 0.00 in0.0 mm
08:28 AM 32.7°F0.4°C 32.5°F0.3°C 99% Calm Calm -- 30.21 in1023.0 mb - 0.00 in0.0 mm 0.00 in0.0 mm
08:27 AM 32.5°F0.3°C 32.3°F0.2°C 99% Calm Calm -- 30.21 in1023.0 mb - 0.00 in0.0 mm 0.00 in0.0 mm
08:26 AM 32.5°F0.3°C 32.3°F0.2°C 99% 1.2 mph NNW1.9 kmh NNW 1.2 mph1.9 kmh 30.21 in1023.0 mb - 0.00 in0.0 mm 0.00 in0.0 mm
08:25 AM 32.4°F0.2°C 32.2°F0.1°C 99% 1.2 mph NNW1.9 kmh NNW 1.2 mph1.9 kmh 30.21 in1023.0 mb - 0.00 in0.0 mm 0.00 in0.0 mm
08:24 AM 32.4°F0.2°C 32.2°F0.1°C 99% 1.2 mph NW1.9 kmh NW 2.3 mph3.7 kmh 30.21 in1023.0 mb - 0.00 in0.0 mm 0.00 in0.0 mm
08:23 AM 32.3°F0.2°C 32.0°F0.0°C 99% Calm Calm 1.2 mph1.9 kmh 30.21 in1023.0 mb - 0.00 in0.0 mm 0.00 in0.0 mm
08:22 AM 32.2°F0.1°C 32.0°F0.0°C 99% 1.2 mph NNW1.9 kmh NNW 1.2 mph1.9 kmh 30.21 in1023.0 mb - 0.00 in0.0 mm 0.00 in0.0 mm
08:21 AM 32.2°F0.1°C 32.0°F0.0°C 99% 1.2 mph NW1.9 kmh NW 1.2 mph1.9 kmh 30.21 in1023.0 mb - 0.00 in0.0 mm 0.00 in0.0 mm
08:20 AM 32.1°F0.1°C 31.8°F-0.1°C 99% 1.2 mph NW1.9 kmh NW 1.2 mph1.9 kmh 30.21 in1023.0 mb - 0.00 in0.0 mm 0.00 in0.0 mm
08:19 AM 32.0°F0.0°C 31.8°F-0.1°C 99% Calm Calm 1.2 mph1.9 kmh 30.21 in1023.0 mb - 0.00 in0.0 mm 0.00 in0.0 mm
08:18 AM 31.9°F-0.1°C 31.6°F-0.2°C 99% Calm Calm -- 30.21 in1023.0 mb - 0.00 in0.0 mm 0.00 in0.0 mm
08:17 AM 31.7°F-0.2°C 31.4°F-0.3°C 99% Calm Calm -- 30.21 in1023.0 mb - 0.00 in0.0 mm 0.00 in0.0 mm
08:16 AM 31.6°F-0.2°C 31.4°F-0.3°C 99% Calm Calm -- 30.21 in1023.0 mb - 0.00 in0.0 mm 0.00 in0.0 mm
08:15 AM 31.6°F-0.2°C 31.4°F-0.3°C 99% Calm Calm -- 30.21 in1023.0 mb - 0.00 in0.0 mm 0.00 in0.0 mm
08:14 AM 31.6°F-0.2°C 31.4°F-0.3°C 99% Calm Calm -- 30.21 in1023.0 mb - 0.00 in0.0 mm 0.00 in0.0 mm
08:13 AM 31.6°F-0.2°C 31.4°F-0.3°C 99% Calm Calm -- 30.21 in1023.0 mb - 0.00 in0.0 mm 0.00 in0.0 mm
08:12 AM 31.6°F-0.2°C 31.4°F-0.3°C 99% Calm Calm -- 30.21 in1023.0 mb - 0.00 in0.0 mm 0.00 in0.0 mm
08:11 AM 31.6°F-0.2°C 31.4°F-0.3°C 99% Calm Calm -- 30.21 in1023.0 mb - 0.00 in0.0 mm 0.00 in0.0 mm
08:10 AM 31.8°F-0.1°C 31.5°F-0.3°C 99% Calm Calm -- 30.21 in1023.0 mb - 0.00 in0.0 mm 0.00 in0.0 mm
08:09 AM 31.8°F-0.1°C 31.6°F-0.2°C 99% Calm Calm -- 30.21 in1023.0 mb - 0.00 in0.0 mm 0.00 in0.0 mm
08:08 AM 31.8°F-0.1°C 31.6°F-0.2°C 99% Calm Calm -- 30.21 in1023.0 mb - 0.00 in0.0 mm 0.00 in0.0 mm
08:07 AM 32.0°F0.0°C 31.7°F-0.2°C 99% Calm Calm -- 30.21 in1023.0 mb - 0.00 in0.0 mm 0.00 in0.0 mm
08:06 AM 32.0°F0.0°C 31.8°F-0.1°C 99% Calm Calm -- 30.21 in1023.0 mb - 0.00 in0.0 mm 0.00 in0.0 mm
08:05 AM 32.0°F0.0°C 31.8°F-0.1°C 99% Calm Calm -- 30.21 in1023.0 mb - 0.00 in0.0 mm 0.00 in0.0 mm
08:04 AM 32.0°F0.0°C 31.8°F-0.1°C 99% Calm Calm -- 30.21 in1023.0 mb - 0.00 in0.0 mm 0.00 in0.0 mm
08:03 AM 32.0°F0.0°C 31.8°F-0.1°C 99% Calm Calm -- 30.21 in1023.0 mb - 0.00 in0.0 mm 0.00 in0.0 mm
08:02 AM 32.0°F0.0°C 31.8°F-0.1°C 99% Calm Calm -- 30.21 in1023.0 mb - 0.00 in0.0 mm 0.00 in0.0 mm
08:01 AM 32.0°F0.0°C 31.8°F-0.1°C 99% Calm Calm -- 30.21 in1023.0 mb - 0.00 in0.0 mm 0.00 in0.0 mm
08:00 AM 32.1°F0.1°C 31.8°F-0.1°C 99% Calm Calm -- 30.21 in1023.0 mb - 0.00 in0.0 mm 0.00 in0.0 mm
07:59 AM 32.2°F0.1°C 32.0°F0.0°C 99% Calm Calm -- 30.21 in1023.0 mb - 0.00 in0.0 mm 0.00 in0.0 mm
07:58 AM 32.2°F0.1°C 32.0°F0.0°C 99% Calm Calm -- 30.21 in1023.0 mb - 0.00 in0.0 mm 0.00 in0.0 mm
07:57 AM 32.2°F0.1°C 32.0°F0.0°C 99% Calm Calm -- 30.21 in1023.0 mb - 0.00 in0.0 mm 0.00 in0.0 mm
07:56 AM 32.2°F0.1°C 32.0°F0.0°C 99% Calm Calm -- 30.21 in1023.0 mb - 0.00 in0.0 mm 0.00 in0.0 mm
07:55 AM 32.2°F0.1°C 32.0°F0.0°C 99% Calm Calm -- 30.21 in1023.0 mb - 0.00 in0.0 mm 0.00 in0.0 mm
07:54 AM 32.3°F0.2°C 32.1°F0.1°C 99% Calm Calm -- 30.21 in1023.0 mb - 0.00 in0.0 mm 0.00 in0.0 mm
07:53 AM 32.4°F0.2°C 32.2°F0.1°C 99% Calm Calm -- 30.21 in1023.0 mb - 0.00 in0.0 mm 0.00 in0.0 mm
07:52 AM 32.4°F0.2°C 32.2°F0.1°C 99% Calm Calm -- 30.21 in1023.0 mb - 0.00 in0.0 mm 0.00 in0.0 mm
07:51 AM 32.4°F0.2°C 32.2°F0.1°C 99% Calm Calm -- 30.21 in1023.0 mb - 0.00 in0.0 mm 0.00 in0.0 mm
07:50 AM 32.5°F0.3°C 32.2°F0.1°C 99% Calm Calm -- 30.21 in1023.0 mb - 0.00 in0.0 mm 0.00 in0.0 mm
07:49 AM 32.5°F0.3°C 32.3°F0.2°C 99% Calm Calm -- 30.21 in1023.0 mb - 0.00 in0.0 mm 0.00 in0.0 mm
07:48 AM 32.5°F0.3°C 32.3°F0.2°C 99% Calm Calm -- 30.20 in1022.7 mb - 0.00 in0.0 mm 0.00 in0.0 mm
07:47 AM 32.7°F0.4°C 32.4°F0.2°C 99% Calm Calm -- 30.20 in1022.7 mb - 0.00 in0.0 mm 0.00 in0.0 mm
07:46 AM 32.7°F0.4°C 32.5°F0.3°C 99% Calm Calm -- 30.20 in1022.7 mb - 0.00 in0.0 mm 0.00 in0.0 mm
07:45 AM 32.7°F0.4°C 32.5°F0.3°C 99% Calm Calm -- 30.20 in1022.7 mb - 0.00 in0.0 mm 0.00 in0.0 mm
07:44 AM 32.9°F0.5°C 32.6°F0.3°C 99% Calm Calm -- 30.20 in1022.7 mb - 0.00 in0.0 mm 0.00 in0.0 mm
07:43 AM 33.0°F0.6°C 32.8°F0.4°C 99% Calm Calm -- 30.20 in1022.7 mb - 0.00 in0.0 mm 0.00 in0.0 mm
07:42 AM 33.1°F0.6°C 32.9°F0.5°C 99% Calm Calm -- 30.20 in1022.7 mb - 0.00 in0.0 mm 0.00 in0.0 mm
07:41 AM 33.1°F0.6°C 32.9°F0.5°C 99% Calm Calm -- 30.20 in1022.7 mb - 0.00 in0.0 mm 0.00 in0.0 mm
07:40 AM 33.1°F0.6°C 32.9°F0.5°C 99% Calm Calm 1.2 mph1.9 kmh 30.20 in1022.7 mb - 0.00 in0.0 mm 0.00 in0.0 mm
07:39 AM 33.0°F0.6°C 32.8°F0.4°C 99% 1.2 mph WSW1.9 kmh WSW 2.3 mph3.7 kmh 30.20 in1022.7 mb - 0.00 in0.0 mm 0.00 in0.0 mm
07:38 AM 32.8°F0.4°C 32.5°F0.3°C 99% 1.2 mph NNW1.9 kmh NNW 3.5 mph5.6 kmh 30.20 in1022.7 mb - 0.00 in0.0 mm 0.00 in0.0 mm
07:37 AM 32.9°F0.5°C 32.7°F0.4°C 99% Calm Calm -- 30.21 in1023.0 mb - 0.00 in0.0 mm 0.00 in0.0 mm
07:36 AM 32.9°F0.5°C 32.7°F0.4°C 99% Calm Calm -- 30.21 in1023.0 mb - 0.00 in0.0 mm 0.00 in0.0 mm
07:35 AM 32.9°F0.5°C 32.7°F0.4°C 99% Calm Calm -- 30.21 in1023.0 mb - 0.00 in0.0 mm 0.00 in0.0 mm
07:34 AM 32.9°F0.5°C 32.7°F0.4°C 99% 1.2 mph NNW1.9 kmh NNW 1.2 mph1.9 kmh 30.21 in1023.0 mb - 0.00 in0.0 mm 0.00 in0.0 mm
07:33 AM 32.9°F0.5°C 32.7°F0.4°C 99% 1.2 mph N1.9 kmh N 1.2 mph1.9 kmh 30.21 in1023.0 mb - 0.00 in0.0 mm 0.00 in0.0 mm
07:32 AM 32.9°F0.5°C 32.7°F0.4°C 99% 1.2 mph NNW1.9 kmh NNW 2.3 mph3.7 kmh 30.21 in1023.0 mb - 0.00 in0.0 mm 0.00 in0.0 mm
07:31 AM 32.9°F0.5°C 32.7°F0.4°C 99% 1.2 mph N1.9 kmh N 2.3 mph3.7 kmh 30.21 in1023.0 mb - 0.00 in0.0 mm 0.00 in0.0 mm
07:30 AM 32.9°F0.5°C 32.6°F0.3°C 99% 3.5 mph NNE5.6 kmh NNE 3.5 mph5.6 kmh 30.21 in1023.0 mb - 0.00 in0.0 mm 0.00 in0.0 mm
07:29 AM 32.6°F0.3°C 32.4°F0.2°C 99% 2.3 mph NW3.7 kmh NW 4.6 mph7.4 kmh 30.21 in1023.0 mb - 0.00 in0.0 mm 0.00 in0.0 mm
07:28 AM 32.5°F0.3°C 32.3°F0.2°C 99% 1.2 mph N1.9 kmh N 2.3 mph3.7 kmh 30.21 in1023.0 mb - 0.00 in0.0 mm 0.00 in0.0 mm
07:27 AM 32.5°F0.3°C 32.3°F0.2°C 99% 1.2 mph N1.9 kmh N 2.3 mph3.7 kmh 30.21 in1023.0 mb - 0.00 in0.0 mm 0.00 in0.0 mm
07:26 AM 32.5°F0.3°C 32.3°F0.2°C 99% 1.2 mph N1.9 kmh N 2.3 mph3.7 kmh 30.21 in1023.0 mb - 0.00 in0.0 mm 0.00 in0.0 mm
07:25 AM 32.4°F0.2°C 32.2°F0.1°C 99% 1.2 mph NNW1.9 kmh NNW 2.3 mph3.7 kmh 30.21 in1023.0 mb - 0.00 in0.0 mm 0.00 in0.0 mm
07:24 AM 32.4°F0.2°C 32.2°F0.1°C 99% Calm Calm 1.2 mph1.9 kmh 30.21 in1023.0 mb - 0.00 in0.0 mm 0.00 in0.0 mm
07:23 AM 32.4°F0.2°C 32.2°F0.1°C 99% Calm Calm 1.2 mph1.9 kmh 30.21 in1023.0 mb - 0.00 in0.0 mm 0.00 in0.0 mm
07:22 AM 32.3°F0.2°C 32.0°F0.0°C 99% 2.3 mph NW3.7 kmh NW 2.3 mph3.7 kmh 30.21 in1023.0 mb - 0.00 in0.0 mm 0.00 in0.0 mm
07:21 AM 32.0°F0.0°C 31.8°F-0.1°C 99% Calm Calm 3.5 mph5.6 kmh 30.21 in1023.0 mb - 0.00 in0.0 mm 0.00 in0.0 mm
07:20 AM 32.0°F0.0°C 31.8°F-0.1°C 99% Calm Calm -- 30.21 in1023.0 mb - 0.00 in0.0 mm 0.00 in0.0 mm
07:19 AM 32.0°F0.0°C 31.8°F-0.1°C 99% Calm Calm -- 30.21 in1023.0 mb - 0.00 in0.0 mm 0.00 in0.0 mm
07:18 AM 32.0°F0.0°C 31.8°F-0.1°C 99% Calm Calm -- 30.21 in1023.0 mb - 0.00 in0.0 mm 0.00 in0.0 mm
07:17 AM 32.0°F0.0°C 31.8°F-0.1°C 99% Calm Calm -- 30.21 in1023.0 mb - 0.00 in0.0 mm 0.00 in0.0 mm
07:16 AM 32.0°F0.0°C 31.8°F-0.1°C 99% Calm Calm -- 30.21 in1023.0 mb - 0.00 in0.0 mm 0.00 in0.0 mm
07:15 AM 32.0°F0.0°C 31.8°F-0.1°C 99% Calm Calm -- 30.21 in1023.0 mb - 0.00 in0.0 mm 0.00 in0.0 mm
07:14 AM 32.0°F0.0°C 31.8°F-0.1°C 99% Calm Calm -- 30.21 in1023.0 mb - 0.00 in0.0 mm 0.00 in0.0 mm
07:13 AM 32.2°F0.1°C 31.9°F-0.1°C 99% Calm Calm -- 30.21 in1023.0 mb - 0.00 in0.0 mm 0.00 in0.0 mm
07:12 AM 32.2°F0.1°C 32.0°F0.0°C 99% Calm Calm -- 30.21 in1023.0 mb - 0.00 in0.0 mm 0.00 in0.0 mm
07:11 AM 32.2°F0.1°C 32.0°F0.0°C 99% Calm Calm -- 30.21 in1023.0 mb - 0.00 in0.0 mm 0.00 in0.0 mm
07:10 AM 32.2°F0.1°C 32.0°F0.0°C 99% Calm Calm -- 30.21 in1023.0 mb - 0.00 in0.0 mm 0.00 in0.0 mm
07:09 AM 32.2°F0.1°C 32.0°F0.0°C 99% Calm Calm -- 30.21 in1023.0 mb - 0.00 in0.0 mm 0.00 in0.0 mm
07:08 AM 32.3°F0.2°C 32.1°F0.1°C 99% Calm Calm -- 30.21 in1023.0 mb - 0.00 in0.0 mm 0.00 in0.0 mm
07:07 AM 32.4°F0.2°C 32.2°F0.1°C 99% Calm Calm -- 30.21 in1023.0 mb - 0.00 in0.0 mm 0.00 in0.0 mm
07:06 AM 32.4°F0.2°C 32.2°F0.1°C 99% Calm Calm -- 30.21 in1023.0 mb - 0.00 in0.0 mm 0.00 in0.0 mm
07:05 AM 32.4°F0.2°C 32.2°F0.1°C 99% Calm Calm -- 30.21 in1023.0 mb - 0.00 in0.0 mm 0.00 in0.0 mm
07:04 AM 32.4°F0.2°C 32.2°F0.1°C 99% Calm Calm -- 30.21 in1023.0 mb - 0.00 in0.0 mm 0.00 in0.0 mm
07:03 AM 32.4°F0.2°C 32.2°F0.1°C 99% Calm Calm -- 30.21 in1023.0 mb - 0.00 in0.0 mm 0.00 in0.0 mm
07:02 AM 32.4°F0.2°C 32.2°F0.1°C 99% Calm Calm -- 30.21 in1023.0 mb - 0.00 in0.0 mm 0.00 in0.0 mm
07:01 AM 32.3°F0.2°C 32.0°F0.0°C 99% Calm Calm -- 30.20 in1022.7 mb - 0.00 in0.0 mm 0.00 in0.0 mm
07:00 AM 32.2°F0.1°C 32.0°F0.0°C 99% Calm Calm -- 30.20 in1022.7 mb - 0.00 in0.0 mm 0.00 in0.0 mm
06:59 AM 32.2°F0.1°C 31.9°F-0.1°C 99% Calm Calm -- 30.20 in1022.7 mb - 0.00 in0.0 mm 0.00 in0.0 mm
06:58 AM 32.0°F0.0°C 31.8°F-0.1°C 99% Calm Calm -- 30.20 in1022.7 mb - 0.00 in0.0 mm 0.00 in0.0 mm
06:57 AM 31.9°F-0.1°C 31.7°F-0.2°C 99% Calm Calm -- 30.20 in1022.7 mb - 0.00 in0.0 mm 0.00 in0.0 mm
06:56 AM 31.8°F-0.1°C 31.5°F-0.3°C 99% Calm Calm -- 30.20 in1022.7 mb - 0.00 in0.0 mm 0.00 in0.0 mm
06:55 AM 31.6°F-0.2°C 31.4°F-0.3°C 99% Calm Calm -- 30.20 in1022.7 mb - 0.00 in0.0 mm 0.00 in0.0 mm
06:54 AM 31.6°F-0.2°C 31.4°F-0.3°C 99% Calm Calm 1.2 mph1.9 kmh 30.20 in1022.7 mb - 0.00 in0.0 mm 0.00 in0.0 mm
06:53 AM 31.6°F-0.2°C 31.4°F-0.3°C 99% Calm Calm 1.2 mph1.9 kmh 30.20 in1022.7 mb - 0.00 in0.0 mm 0.00 in0.0 mm
06:52 AM 31.6°F-0.2°C 31.4°F-0.3°C 99% Calm Calm -- 30.20 in1022.7 mb - 0.00 in0.0 mm 0.00 in0.0 mm
06:51 AM 31.6°F-0.2°C 31.4°F-0.3°C 99% Calm Calm -- 30.20 in1022.7 mb - 0.00 in0.0 mm 0.00 in0.0 mm
06:50 AM 31.6°F-0.2°C 31.4°F-0.3°C 99% Calm Calm -- 30.20 in1022.7 mb - 0.00 in0.0 mm 0.00 in0.0 mm
06:49 AM 31.9°F-0.1°C 31.6°F-0.2°C 99% Calm Calm -- 30.20 in1022.7 mb - 0.00 in0.0 mm 0.00 in0.0 mm
06:48 AM 32.0°F0.0°C 31.8°F-0.1°C 99% Calm Calm -- 30.20 in1022.7 mb - 0.00 in0.0 mm 0.00 in0.0 mm
06:47 AM 32.0°F0.0°C 31.8°F-0.1°C 99% Calm Calm -- 30.20 in1022.7 mb - 0.00 in0.0 mm 0.00 in0.0 mm
06:46 AM 32.0°F0.0°C 31.8°F-0.1°C 99% Calm Calm -- 30.20 in1022.7 mb - 0.00 in0.0 mm 0.00 in0.0 mm
06:45 AM 32.1°F0.1°C 31.9°F-0.1°C 99% Calm Calm -- 30.20 in1022.7 mb - 0.00 in0.0 mm 0.00 in0.0 mm
06:44 AM 32.2°F0.1°C 32.0°F0.0°C 99% Calm Calm -- 30.20 in1022.7 mb - 0.00 in0.0 mm 0.00 in0.0 mm
06:43 AM 32.2°F0.1°C 32.0°F0.0°C 99% Calm Calm -- 30.20 in1022.7 mb - 0.00 in0.0 mm 0.00 in0.0 mm
06:42 AM 32.2°F0.1°C 32.0°F0.0°C 99% Calm Calm -- 30.20 in1022.7 mb - 0.00 in0.0 mm 0.00 in0.0 mm
06:41 AM 32.2°F0.1°C 32.0°F0.0°C 99% Calm Calm -- 30.20 in1022.7 mb - 0.00 in0.0 mm 0.00 in0.0 mm
06:40 AM 32.4°F0.2°C 32.1°F0.1°C 99% Calm Calm -- 30.20 in1022.7 mb - 0.00 in0.0 mm 0.00 in0.0 mm
06:39 AM 32.4°F0.2°C 32.2°F0.1°C 99% Calm Calm -- 30.20 in1022.7 mb - 0.00 in0.0 mm 0.00 in0.0 mm
06:38 AM 32.4°F0.2°C 32.2°F0.1°C 99% Calm Calm -- 30.20 in1022.7 mb - 0.00 in0.0 mm 0.00 in0.0 mm
06:37 AM 32.4°F0.2°C 32.2°F0.1°C 99% Calm Calm -- 30.20 in1022.7 mb - 0.00 in0.0 mm 0.00 in0.0 mm
06:36 AM 32.4°F0.2°C 32.2°F0.1°C 99% Calm Calm -- 30.20 in1022.7 mb - 0.00 in0.0 mm 0.00 in0.0 mm
06:35 AM 32.5°F0.3°C 32.3°F0.2°C 99% Calm Calm -- 30.20 in1022.7 mb - 0.00 in0.0 mm 0.00 in0.0 mm
06:34 AM 32.5°F0.3°C 32.3°F0.2°C 99% Calm Calm -- 30.20 in1022.7 mb - 0.00 in0.0 mm 0.00 in0.0 mm
06:33 AM 32.6°F0.3°C 32.3°F0.2°C 99% Calm Calm -- 30.20 in1022.7 mb - 0.00 in0.0 mm 0.00 in0.0 mm
06:32 AM 32.7°F0.4°C 32.5°F0.3°C 99% Calm Calm -- 30.20 in1022.7 mb - 0.00 in0.0 mm 0.00 in0.0 mm
06:31 AM 32.7°F0.4°C 32.5°F0.3°C 99% Calm Calm -- 30.20 in1022.7 mb - 0.00 in0.0 mm 0.00 in0.0 mm
06:30 AM 32.7°F0.4°C 32.4°F0.2°C 99% Calm Calm 1.2 mph1.9 kmh 30.20 in1022.7 mb - 0.00 in0.0 mm 0.00 in0.0 mm
06:29 AM 32.5°F0.3°C 32.3°F0.2°C 99% Calm Calm 1.2 mph1.9 kmh 30.20 in1022.7 mb - 0.00 in0.0 mm 0.00 in0.0 mm
06:28 AM 32.6°F0.3°C 32.3°F0.2°C 99% Calm Calm -- 30.20 in1022.7 mb - 0.00 in0.0 mm 0.00 in0.0 mm
06:27 AM 32.7°F0.4°C 32.5°F0.3°C 99% Calm Calm -- 30.20 in1022.7 mb - 0.00 in0.0 mm 0.00 in0.0 mm
06:26 AM 32.7°F0.4°C 32.5°F0.3°C 99% Calm Calm -- 30.20 in1022.7 mb - 0.00 in0.0 mm 0.00 in0.0 mm
06:25 AM 32.8°F0.4°C 32.5°F0.3°C 99% Calm Calm -- 30.19 in1022.4 mb - 0.00 in0.0 mm 0.00 in0.0 mm
06:24 AM 33.0°F0.6°C 32.8°F0.4°C 99% Calm Calm -- 30.19 in1022.4 mb - 0.00 in0.0 mm 0.00 in0.0 mm
06:23 AM 33.1°F0.6°C 32.9°F0.5°C 99% Calm Calm -- 30.19 in1022.4 mb - 0.00 in0.0 mm 0.00 in0.0 mm
06:22 AM 33.2°F0.7°C 33.0°F0.6°C 99% Calm Calm -- 30.19 in1022.4 mb - 0.00 in0.0 mm 0.00 in0.0 mm
06:21 AM 33.4°F0.8°C 33.1°F0.6°C 99% Calm Calm -- 30.19 in1022.4 mb - 0.00 in0.0 mm 0.00 in0.0 mm
06:20 AM 33.4°F0.8°C 33.1°F0.6°C 99% Calm Calm -- 30.19 in1022.4 mb - 0.00 in0.0 mm 0.00 in0.0 mm
06:19 AM 33.4°F0.8°C 33.1°F0.6°C 99% Calm Calm -- 30.19 in1022.4 mb - 0.00 in0.0 mm 0.00 in0.0 mm
06:18 AM 33.5°F0.8°C 33.2°F0.7°C 99% Calm Calm -- 30.19 in1022.4 mb - 0.00 in0.0 mm 0.00 in0.0 mm
06:17 AM 33.6°F0.9°C 33.3°F0.7°C 99% Calm Calm -- 30.19 in1022.4 mb - 0.00 in0.0 mm 0.00 in0.0 mm
06:16 AM 33.6°F0.9°C 33.3°F0.7°C 99% Calm Calm -- 30.19 in1022.4 mb - 0.00 in0.0 mm 0.00 in0.0 mm
06:15 AM 33.6°F0.9°C 33.3°F0.7°C 99% Calm Calm -- 30.19 in1022.4 mb - 0.00 in0.0 mm 0.00 in0.0 mm
06:14 AM 33.6°F0.9°C 33.3°F0.7°C 99% Calm Calm -- 30.19 in1022.4 mb - 0.00 in0.0 mm 0.00 in0.0 mm
06:13 AM 33.6°F0.9°C 33.3°F0.7°C 99% Calm Calm -- 30.19 in1022.4 mb - 0.00 in0.0 mm 0.00 in0.0 mm
06:12 AM 33.6°F0.9°C 33.3°F0.7°C 99% Calm Calm -- 30.19 in1022.4 mb - 0.00 in0.0 mm 0.00 in0.0 mm
06:11 AM 33.6°F0.9°C 33.3°F0.7°C 99% Calm Calm -- 30.19 in1022.4 mb - 0.00 in0.0 mm 0.00 in0.0 mm
06:10 AM 33.6°F0.9°C 33.3°F0.7°C 99% Calm Calm -- 30.19 in1022.4 mb - 0.00 in0.0 mm 0.00 in0.0 mm
06:09 AM 33.6°F0.9°C 33.3°F0.7°C 99% Calm Calm -- 30.19 in1022.4 mb - 0.00 in0.0 mm 0.00 in0.0 mm
06:08 AM 33.6°F0.9°C 33.3°F0.7°C 99% Calm Calm -- 30.19 in1022.4 mb - 0.00 in0.0 mm 0.00 in0.0 mm
06:07 AM 33.6°F0.9°C 33.3°F0.7°C 99% Calm Calm -- 30.19 in1022.4 mb - 0.00 in0.0 mm 0.00 in0.0 mm
06:06 AM 33.6°F0.9°C 33.3°F0.7°C 99% Calm Calm -- 30.19 in1022.4 mb - 0.00 in0.0 mm 0.00 in0.0 mm
06:05 AM 33.6°F0.9°C 33.3°F0.7°C 99% 1.2 mph NW1.9 kmh NW 1.2 mph1.9 kmh 30.19 in1022.4 mb - 0.00 in0.0 mm 0.00 in0.0 mm
06:04 AM 33.4°F0.8°C 33.2°F0.7°C 99% 1.2 mph W1.9 kmh W 2.3 mph3.7 kmh 30.19 in1022.4 mb - 0.00 in0.0 mm 0.00 in0.0 mm
06:03 AM 33.4°F0.8°C 33.1°F0.6°C 99% 1.2 mph NW1.9 kmh NW 2.3 mph3.7 kmh 30.19 in1022.4 mb - 0.00 in0.0 mm 0.00 in0.0 mm
06:02 AM 33.4°F0.8°C 33.1°F0.6°C 99% Calm Calm -- 30.19 in1022.4 mb - 0.00 in0.0 mm 0.00 in0.0 mm
06:01 AM 33.4°F0.8°C 33.1°F0.6°C 99% Calm Calm -- 30.19 in1022.4 mb - 0.00 in0.0 mm 0.00 in0.0 mm
06:00 AM 33.4°F0.8°C 33.1°F0.6°C 99% Calm Calm -- 30.19 in1022.4 mb - 0.00 in0.0 mm 0.00 in0.0 mm
05:59 AM 33.4°F0.8°C 33.1°F0.6°C 99% Calm Calm -- 30.19 in1022.4 mb - 0.00 in0.0 mm 0.00 in0.0 mm
05:58 AM 33.4°F0.8°C 33.1°F0.6°C 99% Calm Calm -- 30.19 in1022.4 mb - 0.00 in0.0 mm 0.00 in0.0 mm
05:57 AM 33.4°F0.8°C 33.1°F0.6°C 99% Calm Calm -- 30.19 in1022.4 mb - 0.00 in0.0 mm 0.00 in0.0 mm
05:56 AM 33.4°F0.8°C 33.1°F0.6°C 99% Calm Calm -- 30.19 in1022.4 mb - 0.00 in0.0 mm 0.00 in0.0 mm
05:55 AM 33.4°F0.8°C 33.2°F0.7°C 99% Calm Calm -- 30.19 in1022.4 mb - 0.00 in0.0 mm 0.00 in0.0 mm
05:54 AM 33.6°F0.9°C 33.3°F0.7°C 99% Calm Calm -- 30.19 in1022.4 mb - 0.00 in0.0 mm 0.00 in0.0 mm
05:53 AM 33.6°F0.9°C 33.3°F0.7°C 99% Calm Calm -- 30.19 in1022.4 mb - 0.00 in0.0 mm 0.00 in0.0 mm
05:52 AM 33.6°F0.9°C 33.3°F0.7°C 99% Calm Calm -- 30.19 in1022.4 mb - 0.00 in0.0 mm 0.00 in0.0 mm
05:51 AM 33.6°F0.9°C 33.3°F0.7°C 99% Calm Calm -- 30.19 in1022.4 mb - 0.00 in0.0 mm 0.00 in0.0 mm
05:50 AM 33.6°F0.9°C 33.3°F0.7°C 99% Calm Calm -- 30.19 in1022.4 mb - 0.00 in0.0 mm 0.00 in0.0 mm
05:49 AM 33.6°F0.9°C 33.3°F0.7°C 99% Calm Calm -- 30.19 in1022.4 mb - 0.00 in0.0 mm 0.00 in0.0 mm
05:48 AM 33.6°F0.9°C 33.3°F0.7°C 99% Calm Calm -- 30.19 in1022.4 mb - 0.00 in0.0 mm 0.00 in0.0 mm
05:47 AM 33.6°F0.9°C 33.3°F0.7°C 99% Calm Calm -- 30.19 in1022.4 mb - 0.00 in0.0 mm 0.00 in0.0 mm
05:46 AM 33.6°F0.9°C 33.3°F0.7°C 99% Calm Calm -- 30.19 in1022.4 mb - 0.00 in0.0 mm 0.00 in0.0 mm
05:45 AM 33.6°F0.9°C 33.3°F0.7°C 99% Calm Calm -- 30.19 in1022.4 mb - 0.00 in0.0 mm 0.00 in0.0 mm
05:44 AM 33.6°F0.9°C 33.3°F0.7°C 99% Calm Calm -- 30.19 in1022.4 mb - 0.00 in0.0 mm 0.00 in0.0 mm
05:43 AM 33.5°F0.8°C 33.3°F0.7°C 99% Calm Calm -- 30.19 in1022.4 mb - 0.00 in0.0 mm 0.00 in0.0 mm
05:42 AM 33.4°F0.8°C 33.1°F0.6°C 99% Calm Calm -- 30.19 in1022.4 mb - 0.00 in0.0 mm 0.00 in0.0 mm
05:41 AM 33.4°F0.8°C 33.1°F0.6°C 99% 1.2 mph NW1.9 kmh NW -- 30.19 in1022.4 mb - 0.00 in0.0 mm 0.00 in0.0 mm
05:40 AM 33.3°F0.7°C 33.1°F0.6°C 99% 1.2 mph N1.9 kmh N 1.2 mph1.9 kmh 30.19 in1022.4 mb - 0.00 in0.0 mm 0.00 in0.0 mm
05:39 AM 33.3°F0.7°C 33.0°F0.6°C 99% 2.3 mph N3.7 kmh N 1.2 mph1.9 kmh 30.19 in1022.4 mb - 0.00 in0.0 mm 0.00 in0.0 mm
05:38 AM 33.0°F0.6°C 32.8°F0.4°C 99% 1.2 mph N1.9 kmh N 2.3 mph3.7 kmh 30.19 in1022.4 mb - 0.00 in0.0 mm 0.00 in0.0 mm
05:37 AM 32.7°F0.4°C 32.5°F0.3°C 99% Calm Calm 1.2 mph1.9 kmh 30.19 in1022.4 mb - 0.00 in0.0 mm 0.00 in0.0 mm
05:36 AM 32.5°F0.3°C 32.3°F0.2°C 99% Calm Calm -- 30.19 in1022.4 mb - 0.00 in0.0 mm 0.00 in0.0 mm
05:35 AM 32.5°F0.3°C 32.3°F0.2°C 99% Calm Calm 1.2 mph1.9 kmh 30.19 in1022.4 mb - 0.00 in0.0 mm 0.00 in0.0 mm
05:34 AM 32.5°F0.3°C 32.3°F0.2°C 99% Calm Calm 1.2 mph1.9 kmh 30.19 in1022.4 mb - 0.00 in0.0 mm 0.00 in0.0 mm
05:33 AM 32.4°F0.2°C 32.2°F0.1°C 99% Calm Calm 1.2 mph1.9 kmh 30.19 in1022.4 mb - 0.00 in0.0 mm 0.00 in0.0 mm
05:32 AM 32.1°F0.1°C 31.9°F-0.1°C 99% 1.2 mph NNW1.9 kmh NNW 1.2 mph1.9 kmh 30.19 in1022.4 mb - 0.00 in0.0 mm 0.00 in0.0 mm
05:31 AM 31.9°F-0.1°C 31.6°F-0.2°C 99% 1.2 mph NNW1.9 kmh NNW 1.2 mph1.9 kmh 30.19 in1022.4 mb - 0.00 in0.0 mm 0.00 in0.0 mm
05:30 AM 31.6°F-0.2°C 31.3°F-0.4°C 99% Calm Calm 1.2 mph1.9 kmh 30.19 in1022.4 mb - 0.00 in0.0 mm 0.00 in0.0 mm
05:29 AM 31.3°F-0.4°C 31.1°F-0.5°C 99% Calm Calm -- 30.19 in1022.4 mb - 0.00 in0.0 mm 0.00 in0.0 mm
05:28 AM 31.3°F-0.4°C 31.1°F-0.5°C 99% Calm Calm -- 30.19 in1022.4 mb - 0.00 in0.0 mm 0.00 in0.0 mm
05:27 AM 31.3°F-0.4°C 31.1°F-0.5°C 99% Calm Calm -- 30.19 in1022.4 mb - 0.00 in0.0 mm 0.00 in0.0 mm
05:26 AM 31.3°F-0.4°C 31.1°F-0.5°C 99% Calm Calm -- 30.19 in1022.4 mb - 0.00 in0.0 mm 0.00 in0.0 mm
05:25 AM 31.3°F-0.4°C 31.1°F-0.5°C 99% Calm Calm -- 30.19 in1022.4 mb - 0.00 in0.0 mm 0.00 in0.0 mm
05:24 AM 31.3°F-0.4°C 31.1°F-0.5°C 99% Calm Calm -- 30.19 in1022.4 mb - 0.00 in0.0 mm 0.00 in0.0 mm
05:23 AM 31.3°F-0.4°C 31.1°F-0.5°C 99% Calm Calm -- 30.19 in1022.4 mb - 0.00 in0.0 mm 0.00 in0.0 mm
05:22 AM 31.3°F-0.4°C 31.1°F-0.5°C 99% Calm Calm -- 30.19 in1022.4 mb - 0.00 in0.0 mm 0.00 in0.0 mm
05:21 AM 31.3°F-0.4°C 31.1°F-0.5°C 99% Calm Calm -- 30.19 in1022.4 mb - 0.00 in0.0 mm 0.00 in0.0 mm
05:20 AM 31.5°F-0.3°C 31.3°F-0.4°C 99% Calm Calm -- 30.19 in1022.4 mb - 0.00 in0.0 mm 0.00 in0.0 mm
05:19 AM 31.5°F-0.3°C 31.3°F-0.4°C 99% Calm Calm -- 30.19 in1022.4 mb - 0.00 in0.0 mm 0.00 in0.0 mm
05:18 AM 31.6°F-0.2°C 31.3°F-0.4°C 99% Calm Calm -- 30.19 in1022.4 mb - 0.00 in0.0 mm 0.00 in0.0 mm
05:17 AM 31.6°F-0.2°C 31.4°F-0.3°C 99% Calm Calm -- 30.19 in1022.4 mb - 0.00 in0.0 mm 0.00 in0.0 mm
05:16 AM 31.6°F-0.2°C 31.4°F-0.3°C 99% Calm Calm -- 30.19 in1022.4 mb - 0.00 in0.0 mm 0.00 in0.0 mm
05:15 AM 31.6°F-0.2°C 31.4°F-0.3°C 99% Calm Calm -- 30.19 in1022.4 mb - 0.00 in0.0 mm 0.00 in0.0 mm
05:14 AM 31.6°F-0.2°C 31.4°F-0.3°C 99% Calm Calm -- 30.19 in1022.4 mb - 0.00 in0.0 mm 0.00 in0.0 mm
05:13 AM 31.7°F-0.2°C 31.5°F-0.3°C 99% Calm Calm -- 30.19 in1022.4 mb - 0.00 in0.0 mm 0.00 in0.0 mm
05:12 AM 31.8°F-0.1°C 31.6°F-0.2°C 99% Calm Calm -- 30.19 in1022.4 mb - 0.00 in0.0 mm 0.00 in0.0 mm
05:11 AM 31.8°F-0.1°C 31.6°F-0.2°C 99% Calm Calm 1.2 mph1.9 kmh 30.19 in1022.4 mb - 0.00 in0.0 mm 0.00 in0.0 mm
05:10 AM 31.8°F-0.1°C 31.6°F-0.2°C 99% Calm Calm -- 30.19 in1022.4 mb - 0.00 in0.0 mm 0.00 in0.0 mm
05:09 AM 31.9°F-0.1°C 31.7°F-0.2°C 99% Calm Calm -- 30.19 in1022.4 mb - 0.00 in0.0 mm 0.00 in0.0 mm
05:08 AM 32.0°F0.0°C 31.8°F-0.1°C 99% Calm Calm -- 30.19 in1022.4 mb - 0.00 in0.0 mm 0.00 in0.0 mm
05:07 AM 32.0°F0.0°C 31.8°F-0.1°C 99% Calm Calm -- 30.19 in1022.4 mb - 0.00 in0.0 mm 0.00 in0.0 mm
05:06 AM 31.9°F-0.1°C 31.7°F-0.2°C 99% Calm Calm -- 30.19 in1022.4 mb - 0.00 in0.0 mm 0.00 in0.0 mm
05:05 AM 31.8°F-0.1°C 31.6°F-0.2°C 99% Calm Calm -- 30.19 in1022.4 mb - 0.00 in0.0 mm 0.00 in0.0 mm
05:04 AM 31.8°F-0.1°C 31.6°F-0.2°C 99% Calm Calm -- 30.19 in1022.4 mb - 0.00 in0.0 mm 0.00 in0.0 mm
05:03 AM 31.8°F-0.1°C 31.6°F-0.2°C 99% Calm Calm -- 30.19 in1022.4 mb - 0.00 in0.0 mm 0.00 in0.0 mm
05:02 AM 31.8°F-0.1°C 31.6°F-0.2°C 99% Calm Calm -- 30.19 in1022.4 mb - 0.00 in0.0 mm 0.00 in0.0 mm
05:01 AM 31.8°F-0.1°C 31.6°F-0.2°C 99% Calm Calm -- 30.19 in1022.4 mb - 0.00 in0.0 mm 0.00 in0.0 mm
05:00 AM 31.6°F-0.2°C 31.4°F-0.3°C 99% 1.2 mph S1.9 kmh S -- 30.19 in1022.4 mb - 0.00 in0.0 mm 0.00 in0.0 mm
04:59 AM 31.6°F-0.2°C 31.4°F-0.3°C 99% Calm Calm 1.2 mph1.9 kmh 30.19 in1022.4 mb - 0.00 in0.0 mm 0.00 in0.0 mm
04:58 AM 31.6°F-0.2°C 31.4°F-0.3°C 99% Calm Calm -- 30.19 in1022.4 mb - 0.00 in0.0 mm 0.00 in0.0 mm
04:57 AM 31.6°F-0.2°C 31.4°F-0.3°C 99% Calm Calm -- 30.19 in1022.4 mb - 0.00 in0.0 mm 0.00 in0.0 mm
04:56 AM 31.6°F-0.2°C 31.4°F-0.3°C 99% Calm Calm -- 30.19 in1022.4 mb - 0.00 in0.0 mm 0.00 in0.0 mm
04:55 AM 31.6°F-0.2°C 31.4°F-0.3°C 99% Calm Calm -- 30.19 in1022.4 mb - 0.00 in0.0 mm 0.00 in0.0 mm
04:54 AM 31.6°F-0.2°C 31.4°F-0.3°C 99% Calm Calm -- 30.19 in1022.4 mb - 0.00 in0.0 mm 0.00 in0.0 mm
04:53 AM 31.6°F-0.2°C 31.4°F-0.3°C 99% Calm Calm -- 30.19 in1022.4 mb - 0.00 in0.0 mm 0.00 in0.0 mm
04:52 AM 31.6°F-0.2°C 31.4°F-0.3°C 99% Calm Calm -- 30.19 in1022.4 mb - 0.00 in0.0 mm 0.00 in0.0 mm
04:51 AM 31.6°F-0.2°C 31.4°F-0.3°C 99% Calm Calm -- 30.19 in1022.4 mb - 0.00 in0.0 mm 0.00 in0.0 mm
04:50 AM 31.6°F-0.2°C 31.4°F-0.3°C 99% Calm Calm -- 30.19 in1022.4 mb - 0.00 in0.0 mm 0.00 in0.0 mm
04:49 AM 31.6°F-0.2°C 31.4°F-0.3°C 99% Calm Calm -- 30.19 in1022.4 mb - 0.00 in0.0 mm 0.00 in0.0 mm
04:48 AM 31.6°F-0.2°C 31.4°F-0.3°C 99% Calm Calm -- 30.19 in1022.4 mb - 0.00 in0.0 mm 0.00 in0.0 mm
04:47 AM 31.8°F-0.1°C 31.5°F-0.3°C 99% Calm Calm -- 30.19 in1022.4 mb - 0.00 in0.0 mm 0.00 in0.0 mm
04:46 AM 31.6°F-0.2°C 31.4°F-0.3°C 99% Calm Calm -- 30.19 in1022.4 mb - 0.00 in0.0 mm 0.00 in0.0 mm
04:45 AM 31.7°F-0.2°C 31.4°F-0.3°C 99% Calm Calm -- 30.19 in1022.4 mb - 0.00 in0.0 mm 0.00 in0.0 mm
04:44 AM 31.8°F-0.1°C 31.6°F-0.2°C 99% Calm Calm -- 30.19 in1022.4 mb - 0.00 in0.0 mm 0.00 in0.0 mm
04:43 AM 31.8°F-0.1°C 31.6°F-0.2°C 99% Calm Calm -- 30.19 in1022.4 mb - 0.00 in0.0 mm 0.00 in0.0 mm
04:42 AM 31.8°F-0.1°C 31.6°F-0.2°C 99% Calm Calm -- 30.19 in1022.4 mb - 0.00 in0.0 mm 0.00 in0.0 mm
04:41 AM 31.8°F-0.1°C 31.6°F-0.2°C 99% Calm Calm -- 30.19 in1022.4 mb - 0.00 in0.0 mm 0.00 in0.0 mm
04:40 AM 31.8°F-0.1°C 31.6°F-0.2°C 99% Calm Calm -- 30.19 in1022.4 mb - 0.00 in0.0 mm 0.00 in0.0 mm
04:39 AM 31.8°F-0.1°C 31.6°F-0.2°C 99% Calm Calm -- 30.19 in1022.4 mb - 0.00 in0.0 mm 0.00 in0.0 mm
04:38 AM 31.8°F-0.1°C 31.6°F-0.2°C 99% Calm Calm -- 30.19 in1022.4 mb - 0.00 in0.0 mm 0.00 in0.0 mm
04:37 AM 31.8°F-0.1°C 31.6°F-0.2°C 99% Calm Calm -- 30.19 in1022.4 mb - 0.00 in0.0 mm 0.00 in0.0 mm
04:36 AM 31.8°F-0.1°C 31.6°F-0.2°C 99% Calm Calm -- 30.19 in1022.4 mb - 0.00 in0.0 mm 0.00 in0.0 mm
04:35 AM 31.8°F-0.1°C 31.6°F-0.2°C 99% Calm Calm -- 30.19 in1022.4 mb - 0.00 in0.0 mm 0.00 in0.0 mm
04:34 AM 32.0°F0.0°C 31.7°F-0.2°C 99% Calm Calm 1.2 mph1.9 kmh 30.19 in1022.4 mb - 0.00 in0.0 mm 0.00 in0.0 mm
04:33 AM 32.0°F0.0°C 31.8°F-0.1°C 99% Calm Calm -- 30.19 in1022.4 mb - 0.00 in0.0 mm 0.00 in0.0 mm
04:32 AM 32.1°F0.1°C 31.9°F-0.1°C 99% Calm Calm -- 30.19 in1022.4 mb - 0.00 in0.0 mm 0.00 in0.0 mm
04:31 AM 32.2°F0.1°C 32.0°F0.0°C 99% Calm Calm -- 30.19 in1022.4 mb - 0.00 in0.0 mm 0.00 in0.0 mm
04:30 AM 32.4°F0.2°C 32.2°F0.1°C 99% Calm Calm -- 30.19 in1022.4 mb - 0.00 in0.0 mm 0.00 in0.0 mm
04:29 AM 32.4°F0.2°C 32.2°F0.1°C 99% Calm Calm -- 30.19 in1022.4 mb - 0.00 in0.0 mm 0.00 in0.0 mm
04:28 AM 32.5°F0.3°C 32.3°F0.2°C 99% Calm Calm -- 30.19 in1022.4 mb - 0.00 in0.0 mm 0.00 in0.0 mm
04:27 AM 32.5°F0.3°C 32.3°F0.2°C 99% Calm Calm -- 30.19 in1022.4 mb - 0.00 in0.0 mm 0.00 in0.0 mm
04:26 AM 32.5°F0.3°C 32.3°F0.2°C 99% Calm Calm -- 30.19 in1022.4 mb - 0.00 in0.0 mm 0.00 in0.0 mm
04:25 AM 32.4°F0.2°C 32.2°F0.1°C 99% Calm Calm -- 30.18 in1022.0 mb - 0.00 in0.0 mm 0.00 in0.0 mm
04:24 AM 32.4°F0.2°C 32.2°F0.1°C 99% Calm Calm -- 30.18 in1022.0 mb - 0.00 in0.0 mm 0.00 in0.0 mm
04:23 AM 32.4°F0.2°C 32.2°F0.1°C 99% Calm Calm -- 30.18 in1022.0 mb - 0.00 in0.0 mm 0.00 in0.0 mm
04:22 AM 32.4°F0.2°C 31.9°F-0.1°C 98% Calm Calm -- 30.18 in1022.0 mb - 0.00 in0.0 mm 0.00 in0.0 mm
04:21 AM 32.4°F0.2°C 31.9°F-0.1°C 98% Calm Calm -- 30.18 in1022.0 mb - 0.00 in0.0 mm 0.00 in0.0 mm
04:20 AM 32.5°F0.3°C 32.0°F0.0°C 98% Calm Calm -- 30.18 in1022.0 mb - 0.00 in0.0 mm 0.00 in0.0 mm
04:19 AM 32.5°F0.3°C 32.0°F0.0°C 98% Calm Calm -- 30.18 in1022.0 mb - 0.00 in0.0 mm 0.00 in0.0 mm
04:18 AM 32.5°F0.3°C 32.0°F0.0°C 98% Calm Calm -- 30.18 in1022.0 mb - 0.00 in0.0 mm 0.00 in0.0 mm
04:17 AM 32.5°F0.3°C 32.0°F0.0°C 98% Calm Calm -- 30.18 in1022.0 mb - 0.00 in0.0 mm 0.00 in0.0 mm
04:16 AM 32.5°F0.3°C 32.0°F0.0°C 98% Calm Calm -- 30.18 in1022.0 mb - 0.00 in0.0 mm 0.00 in0.0 mm
04:15 AM 32.5°F0.3°C 32.0°F0.0°C 98% Calm Calm -- 30.18 in1022.0 mb - 0.00 in0.0 mm 0.00 in0.0 mm
04:14 AM 32.7°F0.4°C 32.2°F0.1°C 98% Calm Calm -- 30.19 in1022.4 mb - 0.00 in0.0 mm 0.00 in0.0 mm
04:13 AM 32.7°F0.4°C 32.2°F0.1°C 98% Calm Calm -- 30.19 in1022.4 mb - 0.00 in0.0 mm 0.00 in0.0 mm
04:12 AM 32.7°F0.4°C 32.2°F0.1°C 98% Calm Calm -- 30.19 in1022.4 mb - 0.00 in0.0 mm 0.00 in0.0 mm
04:11 AM 32.7°F0.4°C 32.2°F0.1°C 98% Calm Calm -- 30.19 in1022.4 mb - 0.00 in0.0 mm 0.00 in0.0 mm
04:10 AM 32.7°F0.4°C 32.2°F0.1°C 98% Calm Calm 1.2 mph1.9 kmh 30.19 in1022.4 mb - 0.00 in0.0 mm 0.00 in0.0 mm
04:09 AM 32.7°F0.4°C 32.2°F0.1°C 98% Calm Calm -- 30.19 in1022.4 mb - 0.00 in0.0 mm 0.00 in0.0 mm
04:08 AM 32.7°F0.4°C 32.2°F0.1°C 98% Calm Calm -- 30.19 in1022.4 mb - 0.00 in0.0 mm 0.00 in0.0 mm
04:07 AM 32.7°F0.4°C 32.2°F0.1°C 98% Calm Calm -- 30.19 in1022.4 mb - 0.00 in0.0 mm 0.00 in0.0 mm
04:06 AM 32.8°F0.4°C 32.3°F0.2°C 98% Calm Calm -- 30.19 in1022.4 mb - 0.00 in0.0 mm 0.00 in0.0 mm
04:05 AM 33.1°F0.6°C 32.6°F0.3°C 98% Calm Calm -- 30.19 in1022.4 mb - 0.00 in0.0 mm 0.00 in0.0 mm
04:04 AM 33.1°F0.6°C 32.6°F0.3°C 98% Calm Calm -- 30.19 in1022.4 mb - 0.00 in0.0 mm 0.00 in0.0 mm
04:03 AM 33.2°F0.7°C 32.7°F0.4°C 98% Calm Calm -- 30.19 in1022.4 mb - 0.00 in0.0 mm 0.00 in0.0 mm
04:02 AM 33.3°F0.7°C 32.8°F0.4°C 98% Calm Calm -- 30.18 in1022.0 mb - 0.00 in0.0 mm 0.00 in0.0 mm
04:01 AM 33.4°F0.8°C 32.9°F0.5°C 98% Calm Calm -- 30.18 in1022.0 mb - 0.00 in0.0 mm 0.00 in0.0 mm
04:00 AM 33.4°F0.8°C 32.9°F0.5°C 98% Calm Calm -- 30.18 in1022.0 mb - 0.00 in0.0 mm 0.00 in0.0 mm
03:59 AM 33.5°F0.8°C 33.0°F0.6°C 98% Calm Calm -- 30.18 in1022.0 mb - 0.00 in0.0 mm 0.00 in0.0 mm
03:58 AM 33.7°F0.9°C 33.2°F0.7°C 98% Calm Calm -- 30.18 in1022.0 mb - 0.00 in0.0 mm 0.00 in0.0 mm
03:57 AM 33.8°F1.0°C 33.3°F0.7°C 98% Calm Calm -- 30.18 in1022.0 mb - 0.00 in0.0 mm 0.00 in0.0 mm
03:56 AM 33.8°F1.0°C 33.3°F0.7°C 98% Calm Calm -- 30.18 in1022.0 mb - 0.00 in0.0 mm 0.00 in0.0 mm
03:55 AM 33.8°F1.0°C 33.3°F0.7°C 98% Calm Calm -- 30.18 in1022.0 mb - 0.00 in0.0 mm 0.00 in0.0 mm
03:54 AM 33.8°F1.0°C 33.3°F0.7°C 98% Calm Calm -- 30.18 in1022.0 mb - 0.00 in0.0 mm 0.00 in0.0 mm
03:53 AM 33.8°F1.0°C 33.3°F0.7°C 98% Calm Calm -- 30.18 in1022.0 mb - 0.00 in0.0 mm 0.00 in0.0 mm
03:52 AM 33.6°F0.9°C 33.1°F0.6°C 98% 1.2 mph NNW1.9 kmh NNW 1.2 mph1.9 kmh 30.18 in1022.0 mb - 0.00 in0.0 mm 0.00 in0.0 mm
03:51 AM 33.6°F0.9°C 33.1°F0.6°C 98% Calm Calm 1.2 mph1.9 kmh 30.18 in1022.0 mb - 0.00 in0.0 mm 0.00 in0.0 mm
03:50 AM 33.6°F0.9°C 33.1°F0.6°C 98% 1.2 mph N1.9 kmh N -- 30.18 in1022.0 mb - 0.00 in0.0 mm 0.00 in0.0 mm
03:49 AM 33.6°F0.9°C 33.1°F0.6°C 98% Calm Calm 1.2 mph1.9 kmh 30.18 in1022.0 mb - 0.00 in0.0 mm 0.00 in0.0 mm
03:48 AM 33.6°F0.9°C 33.1°F0.6°C 98% Calm Calm -- 30.18 in1022.0 mb - 0.00 in0.0 mm 0.00 in0.0 mm
03:47 AM 33.6°F0.9°C 33.1°F0.6°C 98% Calm Calm -- 30.18 in1022.0 mb - 0.00 in0.0 mm 0.00 in0.0 mm
03:46 AM 33.6°F0.9°C 33.1°F0.6°C 98% Calm Calm -- 30.18 in1022.0 mb - 0.00 in0.0 mm 0.00 in0.0 mm
03:45 AM 33.6°F0.9°C 33.1°F0.6°C 98% Calm Calm -- 30.18 in1022.0 mb - 0.00 in0.0 mm 0.00 in0.0 mm
03:44 AM 33.7°F0.9°C 33.2°F0.7°C 98% Calm Calm -- 30.18 in1022.0 mb - 0.00 in0.0 mm 0.00 in0.0 mm
03:43 AM 33.8°F1.0°C 33.3°F0.7°C 98% Calm Calm -- 30.18 in1022.0 mb - 0.00 in0.0 mm 0.00 in0.0 mm
03:42 AM 33.8°F1.0°C 33.3°F0.7°C 98% Calm Calm -- 30.18 in1022.0 mb - 0.00 in0.0 mm 0.00 in0.0 mm
03:41 AM 33.9°F1.1°C 33.4°F0.8°C 98% Calm Calm -- 30.18 in1022.0 mb - 0.00 in0.0 mm 0.00 in0.0 mm
03:40 AM 34.0°F1.1°C 33.5°F0.8°C 98% Calm Calm -- 30.18 in1022.0 mb - 0.00 in0.0 mm 0.00 in0.0 mm
03:39 AM 34.0°F1.1°C 33.5°F0.8°C 98% Calm Calm -- 30.18 in1022.0 mb - 0.00 in0.0 mm 0.00 in0.0 mm
03:38 AM 34.0°F1.1°C 33.5°F0.8°C 98% Calm Calm -- 30.18 in1022.0 mb - 0.00 in0.0 mm 0.00 in0.0 mm
03:37 AM 34.0°F1.1°C 33.5°F0.8°C 98% Calm Calm -- 30.18 in1022.0 mb - 0.00 in0.0 mm 0.00 in0.0 mm
03:36 AM 34.0°F1.1°C 33.5°F0.8°C 98% Calm Calm -- 30.18 in1022.0 mb - 0.00 in0.0 mm 0.00 in0.0 mm
03:35 AM 34.0°F1.1°C 33.5°F0.8°C 98% Calm Calm -- 30.18 in1022.0 mb - 0.00 in0.0 mm 0.00 in0.0 mm
03:34 AM 33.8°F1.0°C 33.3°F0.7°C 98% Calm Calm -- 30.18 in1022.0 mb - 0.00 in0.0 mm 0.00 in0.0 mm
03:33 AM 33.8°F1.0°C 33.3°F0.7°C 98% Calm Calm -- 30.18 in1022.0 mb - 0.00 in0.0 mm 0.00 in0.0 mm
03:32 AM 33.8°F1.0°C 33.3°F0.7°C 98% Calm Calm -- 30.18 in1022.0 mb - 0.00 in0.0 mm 0.00 in0.0 mm
03:31 AM 33.9°F1.1°C 33.1°F0.6°C 97% Calm Calm -- 30.18 in1022.0 mb - 0.00 in0.0 mm 0.00 in0.0 mm
03:30 AM 34.0°F1.1°C 33.2°F0.7°C 97% Calm Calm -- 30.18 in1022.0 mb - 0.00 in0.0 mm 0.00 in0.0 mm
03:29 AM 34.0°F1.1°C 33.2°F0.7°C 97% Calm Calm -- 30.18 in1022.0 mb - 0.00 in0.0 mm 0.00 in0.0 mm
03:28 AM 34.0°F1.1°C 33.2°F0.7°C 97% Calm Calm -- 30.18 in1022.0 mb - 0.00 in0.0 mm 0.00 in0.0 mm
03:27 AM 34.0°F1.1°C 33.2°F0.7°C 97% Calm Calm -- 30.18 in1022.0 mb - 0.00 in0.0 mm 0.00 in0.0 mm
03:26 AM 34.1°F1.2°C 33.3°F0.7°C 97% Calm Calm -- 30.18 in1022.0 mb - 0.00 in0.0 mm 0.00 in0.0 mm
03:25 AM 34.2°F1.2°C 33.4°F0.8°C 97% Calm Calm -- 30.18 in1022.0 mb - 0.00 in0.0 mm 0.00 in0.0 mm
03:24 AM 34.2°F1.2°C 33.2°F0.7°C 96% Calm Calm -- 30.18 in1022.0 mb - 0.00 in0.0 mm 0.00 in0.0 mm
03:23 AM 34.2°F1.2°C 33.0°F0.6°C 95% Calm Calm -- 30.18 in1022.0 mb - 0.00 in0.0 mm 0.00 in0.0 mm
03:22 AM 34.3°F1.3°C 33.0°F0.6°C 95% Calm Calm -- 30.18 in1022.0 mb - 0.00 in0.0 mm 0.00 in0.0 mm
03:21 AM 34.3°F1.3°C 33.0°F0.6°C 95% Calm Calm -- 30.18 in1022.0 mb - 0.00 in0.0 mm 0.00 in0.0 mm
03:20 AM 34.3°F1.3°C 33.0°F0.6°C 95% Calm Calm -- 30.18 in1022.0 mb - 0.00 in0.0 mm 0.00 in0.0 mm
03:19 AM 34.3°F1.3°C 33.0°F0.6°C 95% Calm Calm -- 30.18 in1022.0 mb - 0.00 in0.0 mm 0.00 in0.0 mm
03:18 AM 34.5°F1.4°C 33.2°F0.7°C 95% Calm Calm -- 30.18 in1022.0 mb - 0.00 in0.0 mm 0.00 in0.0 mm
03:17 AM 34.6°F1.4°C 33.4°F0.8°C 95% Calm Calm -- 30.18 in1022.0 mb - 0.00 in0.0 mm 0.00 in0.0 mm
03:16 AM 34.7°F1.5°C 33.4°F0.8°C 95% Calm Calm -- 30.18 in1022.0 mb - 0.00 in0.0 mm 0.00 in0.0 mm
03:15 AM 34.9°F1.6°C 33.6°F0.9°C 95% Calm Calm -- 30.18 in1022.0 mb - 0.00 in0.0 mm 0.00 in0.0 mm
03:14 AM 34.9°F1.6°C 33.6°F0.9°C 95% Calm Calm -- 30.18 in1022.0 mb - 0.00 in0.0 mm 0.00 in0.0 mm
03:13 AM 35.0°F1.7°C 33.7°F0.9°C 95% Calm Calm -- 30.18 in1022.0 mb - 0.00 in0.0 mm 0.00 in0.0 mm
03:12 AM 35.1°F1.7°C 33.8°F1.0°C 95% Calm Calm -- 30.18 in1022.0 mb - 0.00 in0.0 mm 0.00 in0.0 mm
03:11 AM 35.1°F1.7°C 33.8°F1.0°C 95% Calm Calm -- 30.18 in1022.0 mb - 0.00 in0.0 mm 0.00 in0.0 mm
03:10 AM 35.1°F1.7°C 33.8°F1.0°C 95% Calm Calm -- 30.18 in1022.0 mb - 0.00 in0.0 mm 0.00 in0.0 mm
03:09 AM 35.2°F1.8°C 33.9°F1.1°C 95% Calm Calm -- 30.18 in1022.0 mb - 0.00 in0.0 mm 0.00 in0.0 mm
03:08 AM 35.3°F1.8°C 34.0°F1.1°C 95% Calm Calm -- 30.18 in1022.0 mb - 0.00 in0.0 mm 0.00 in0.0 mm
03:07 AM 35.4°F1.9°C 34.1°F1.2°C 95% Calm Calm -- 30.18 in1022.0 mb - 0.00 in0.0 mm 0.00 in0.0 mm
03:06 AM 35.4°F1.9°C 34.1°F1.2°C 95% Calm Calm -- 30.18 in1022.0 mb - 0.00 in0.0 mm 0.00 in0.0 mm
03:05 AM 35.4°F1.9°C 34.1°F1.2°C 95% Calm Calm -- 30.18 in1022.0 mb - 0.00 in0.0 mm 0.00 in0.0 mm
03:04 AM 35.4°F1.9°C 34.1°F1.2°C 95% Calm Calm -- 30.18 in1022.0 mb - 0.00 in0.0 mm 0.00 in0.0 mm
03:03 AM 35.4°F1.9°C 34.1°F1.2°C 95% 1.2 mph E1.9 kmh E -- 30.18 in1022.0 mb - 0.00 in0.0 mm 0.00 in0.0 mm
03:02 AM 35.4°F1.9°C 34.1°F1.2°C 95% 1.2 mph NE1.9 kmh NE 1.2 mph1.9 kmh 30.18 in1022.0 mb - 0.00 in0.0 mm 0.00 in0.0 mm
03:01 AM 35.4°F1.9°C 34.1°F1.2°C 95% 1.2 mph N1.9 kmh N 1.2 mph1.9 kmh 30.19 in1022.4 mb - 0.00 in0.0 mm 0.00 in0.0 mm
03:00 AM 35.4°F1.9°C 34.1°F1.2°C 95% 1.2 mph NNE1.9 kmh NNE 1.2 mph1.9 kmh 30.19 in1022.4 mb - 0.00 in0.0 mm 0.00 in0.0 mm
02:59 AM 35.4°F1.9°C 34.1°F1.2°C 95% 2.3 mph N3.7 kmh N 2.3 mph3.7 kmh 30.19 in1022.4 mb - 0.00 in0.0 mm 0.00 in0.0 mm
02:58 AM 35.4°F1.9°C 34.4°F1.3°C 96% 2.3 mph NNE3.7 kmh NNE 2.3 mph3.7 kmh 30.19 in1022.4 mb - 0.00 in0.0 mm 0.00 in0.0 mm
02:57 AM 35.4°F1.9°C 34.4°F1.3°C 96% 1.2 mph NNE1.9 kmh NNE 2.3 mph3.7 kmh 30.19 in1022.4 mb - 0.00 in0.0 mm 0.00 in0.0 mm
02:56 AM 35.3°F1.8°C 34.3°F1.3°C 96% 2.3 mph NNE3.7 kmh NNE 2.3 mph3.7 kmh 30.19 in1022.4 mb - 0.00 in0.0 mm 0.00 in0.0 mm
02:55 AM 35.2°F1.8°C 34.2°F1.2°C 96% 1.2 mph NE1.9 kmh NE 2.3 mph3.7 kmh 30.19 in1022.4 mb - 0.00 in0.0 mm 0.00 in0.0 mm
02:54 AM 35.2°F1.8°C 34.2°F1.2°C 96% 1.2 mph NNE1.9 kmh NNE 1.2 mph1.9 kmh 30.19 in1022.4 mb - 0.00 in0.0 mm 0.00 in0.0 mm
02:53 AM 35.1°F1.7°C 34.1°F1.2°C 96% 1.2 mph NNE1.9 kmh NNE 1.2 mph1.9 kmh 30.19 in1022.4 mb - 0.00 in0.0 mm 0.00 in0.0 mm
02:52 AM 35.1°F1.7°C 34.1°F1.2°C 96% 1.2 mph NNE1.9 kmh NNE 1.2 mph1.9 kmh 30.19 in1022.4 mb - 0.00 in0.0 mm 0.00 in0.0 mm
02:51 AM 35.1°F1.7°C 34.1°F1.2°C 96% Calm Calm 1.2 mph1.9 kmh 30.19 in1022.4 mb - 0.00 in0.0 mm 0.00 in0.0 mm
02:50 AM 35.1°F1.7°C 33.8°F1.0°C 95% Calm Calm -- 30.19 in1022.4 mb - 0.00 in0.0 mm 0.00 in0.0 mm
02:49 AM 35.2°F1.8°C 33.6°F0.9°C 94% Calm Calm 1.2 mph1.9 kmh 30.19 in1022.4 mb - 0.00 in0.0 mm 0.00 in0.0 mm
02:48 AM 35.2°F1.8°C 33.6°F0.9°C 94% Calm Calm 1.2 mph1.9 kmh 30.18 in1022.0 mb - 0.00 in0.0 mm 0.00 in0.0 mm
02:47 AM 35.3°F1.8°C 33.5°F0.8°C 93% Calm Calm -- 30.18 in1022.0 mb - 0.00 in0.0 mm 0.00 in0.0 mm
02:46 AM 35.7°F2.1°C 33.8°F1.0°C 93% Calm Calm -- 30.18 in1022.0 mb - 0.00 in0.0 mm 0.00 in0.0 mm
02:45 AM 35.8°F2.1°C 34.0°F1.1°C 93% Calm Calm -- 30.18 in1022.0 mb - 0.00 in0.0 mm 0.00 in0.0 mm
02:44 AM 35.8°F2.1°C 34.0°F1.1°C 93% Calm Calm -- 30.18 in1022.0 mb - 0.00 in0.0 mm 0.00 in0.0 mm
02:43 AM 35.8°F2.1°C 34.0°F1.1°C 93% Calm Calm -- 30.18 in1022.0 mb - 0.00 in0.0 mm 0.00 in0.0 mm
02:42 AM 35.8°F2.1°C 34.0°F1.1°C 93% Calm Calm -- 30.18 in1022.0 mb - 0.00 in0.0 mm 0.00 in0.0 mm
02:41 AM 35.8°F2.1°C 34.0°F1.1°C 93% Calm Calm -- 30.18 in1022.0 mb - 0.00 in0.0 mm 0.00 in0.0 mm
02:40 AM 36.0°F2.2°C 34.1°F1.2°C 93% Calm Calm -- 30.18 in1022.0 mb - 0.00 in0.0 mm 0.00 in0.0 mm
02:39 AM 36.0°F2.2°C 34.2°F1.2°C 93% Calm Calm -- 30.18 in1022.0 mb - 0.00 in0.0 mm 0.00 in0.0 mm
02:38 AM 36.0°F2.2°C 34.2°F1.2°C 93% Calm Calm -- 30.18 in1022.0 mb - 0.00 in0.0 mm 0.00 in0.0 mm
02:37 AM 36.0°F2.2°C 34.2°F1.2°C 93% Calm Calm -- 30.18 in1022.0 mb - 0.00 in0.0 mm 0.00 in0.0 mm
02:36 AM 36.0°F2.2°C 34.2°F1.2°C 93% Calm Calm -- 30.18 in1022.0 mb - 0.00 in0.0 mm 0.00 in0.0 mm
02:35 AM 36.0°F2.2°C 34.2°F1.2°C 93% Calm Calm -- 30.18 in1022.0 mb - 0.00 in0.0 mm 0.00 in0.0 mm
02:34 AM 36.0°F2.2°C 34.2°F1.2°C 93% Calm Calm -- 30.18 in1022.0 mb - 0.00 in0.0 mm 0.00 in0.0 mm
02:33 AM 36.0°F2.2°C 34.2°F1.2°C 93% Calm Calm -- 30.18 in1022.0 mb - 0.00 in0.0 mm 0.00 in0.0 mm
02:32 AM 36.0°F2.2°C 34.2°F1.2°C 93% Calm Calm -- 30.18 in1022.0 mb - 0.00 in0.0 mm 0.00 in0.0 mm
02:31 AM 36.0°F2.2°C 34.2°F1.2°C 93% Calm Calm -- 30.18 in1022.0 mb - 0.00 in0.0 mm 0.00 in0.0 mm
02:30 AM 36.0°F2.2°C 34.2°F1.2°C 93% Calm Calm -- 30.18 in1022.0 mb - 0.00 in0.0 mm 0.00 in0.0 mm
02:29 AM 36.0°F2.2°C 34.2°F1.2°C 93% Calm Calm -- 30.18 in1022.0 mb - 0.00 in0.0 mm 0.00 in0.0 mm
02:28 AM 36.0°F2.2°C 34.2°F1.2°C 93% Calm Calm -- 30.18 in1022.0 mb - 0.00 in0.0 mm 0.00 in0.0 mm
02:27 AM 36.0°F2.2°C 34.2°F1.2°C 93% Calm Calm 1.2 mph1.9 kmh 30.18 in1022.0 mb - 0.00 in0.0 mm 0.00 in0.0 mm
02:26 AM 36.0°F2.2°C 34.2°F1.2°C 93% Calm Calm -- 30.18 in1022.0 mb - 0.00 in0.0 mm 0.00 in0.0 mm
02:25 AM 36.0°F2.2°C 34.2°F1.2°C 93% Calm Calm -- 30.18 in1022.0 mb - 0.00 in0.0 mm 0.00 in0.0 mm
02:24 AM 36.0°F2.2°C 34.2°F1.2°C 93% 1.2 mph NNW1.9 kmh NNW 1.2 mph1.9 kmh 30.18 in1022.0 mb - 0.00 in0.0 mm 0.00 in0.0 mm
02:23 AM 36.0°F2.2°C 34.2°F1.2°C 93% 1.2 mph N1.9 kmh N 1.2 mph1.9 kmh 30.18 in1022.0 mb - 0.00 in0.0 mm 0.00 in0.0 mm
02:22 AM 36.0°F2.2°C 34.2°F1.2°C 93% Calm Calm 1.2 mph1.9 kmh 30.18 in1022.0 mb - 0.00 in0.0 mm 0.00 in0.0 mm
02:21 AM 36.0°F2.2°C 34.2°F1.2°C 93% Calm Calm -- 30.18 in1022.0 mb - 0.00 in0.0 mm 0.00 in0.0 mm
02:20 AM 36.0°F2.2°C 34.2°F1.2°C 93% Calm Calm -- 30.18 in1022.0 mb - 0.00 in0.0 mm 0.00 in0.0 mm
02:19 AM 36.0°F2.2°C 34.2°F1.2°C 93% Calm Calm -- 30.18 in1022.0 mb - 0.00 in0.0 mm 0.00 in0.0 mm
02:18 AM 35.9°F2.2°C 34.1°F1.2°C 93% Calm Calm -- 30.18 in1022.0 mb - 0.00 in0.0 mm 0.00 in0.0 mm
02:17 AM 35.8°F2.1°C 34.0°F1.1°C 93% Calm Calm 1.2 mph1.9 kmh 30.18 in1022.0 mb - 0.00 in0.0 mm 0.00 in0.0 mm
02:16 AM 35.8°F2.1°C 34.0°F1.1°C 93% Calm Calm -- 30.18 in1022.0 mb - 0.00 in0.0 mm 0.00 in0.0 mm
02:15 AM 35.8°F2.1°C 34.0°F1.1°C 93% Calm Calm -- 30.18 in1022.0 mb - 0.00 in0.0 mm 0.00 in0.0 mm
02:14 AM 35.8°F2.1°C 34.2°F1.2°C 94% Calm Calm -- 30.18 in1022.0 mb - 0.00 in0.0 mm 0.00 in0.0 mm
02:13 AM 35.8°F2.1°C 34.2°F1.2°C 94% Calm Calm -- 30.18 in1022.0 mb - 0.00 in0.0 mm 0.00 in0.0 mm
02:12 AM 35.8°F2.1°C 34.2°F1.2°C 94% Calm Calm -- 30.18 in1022.0 mb - 0.00 in0.0 mm 0.00 in0.0 mm
02:11 AM 35.7°F2.1°C 34.1°F1.2°C 94% Calm Calm -- 30.18 in1022.0 mb - 0.00 in0.0 mm 0.00 in0.0 mm
02:10 AM 35.6°F2.0°C 34.0°F1.1°C 94% Calm Calm -- 30.18 in1022.0 mb - 0.00 in0.0 mm 0.00 in0.0 mm
02:09 AM 35.6°F2.0°C 34.0°F1.1°C 94% Calm Calm -- 30.18 in1022.0 mb - 0.00 in0.0 mm 0.00 in0.0 mm
02:08 AM 35.6°F2.0°C 34.0°F1.1°C 94% Calm Calm -- 30.18 in1022.0 mb - 0.00 in0.0 mm 0.00 in0.0 mm
02:07 AM 35.6°F2.0°C 34.0°F1.1°C 94% Calm Calm -- 30.18 in1022.0 mb - 0.00 in0.0 mm 0.00 in0.0 mm
02:06 AM 35.6°F2.0°C 34.0°F1.1°C 94% Calm Calm -- 30.18 in1022.0 mb - 0.00 in0.0 mm 0.00 in0.0 mm
02:05 AM 35.6°F2.0°C 34.0°F1.1°C 94% Calm Calm -- 30.18 in1022.0 mb - 0.00 in0.0 mm 0.00 in0.0 mm
02:04 AM 35.6°F2.0°C 34.0°F1.1°C 94% Calm Calm -- 30.18 in1022.0 mb - 0.00 in0.0 mm 0.00 in0.0 mm
02:03 AM 35.6°F2.0°C 34.0°F1.1°C 94% Calm Calm -- 30.18 in1022.0 mb - 0.00 in0.0 mm 0.00 in0.0 mm
02:02 AM 35.6°F2.0°C 34.0°F1.1°C 94% Calm Calm -- 30.18 in1022.0 mb - 0.00 in0.0 mm 0.00 in0.0 mm
02:01 AM 35.6°F2.0°C 34.0°F1.1°C 94% Calm Calm -- 30.18 in1022.0 mb - 0.00 in0.0 mm 0.00 in0.0 mm
02:00 AM 35.7°F2.1°C 34.2°F1.2°C 94% Calm Calm -- 30.18 in1022.0 mb - 0.00 in0.0 mm 0.00 in0.0 mm
01:59 AM 35.8°F2.1°C 34.2°F1.2°C 94% Calm Calm -- 30.18 in1022.0 mb - 0.00 in0.0 mm 0.00 in0.0 mm
01:58 AM 35.8°F2.1°C 34.2°F1.2°C 94% Calm Calm -- 30.18 in1022.0 mb - 0.00 in0.0 mm 0.00 in0.0 mm
01:57 AM 35.8°F2.1°C 34.2°F1.2°C 94% Calm Calm -- 30.18 in1022.0 mb - 0.00 in0.0 mm 0.00 in0.0 mm
01:56 AM 35.8°F2.1°C 34.2°F1.2°C 94% Calm Calm -- 30.18 in1022.0 mb - 0.00 in0.0 mm 0.00 in0.0 mm
01:55 AM 35.8°F2.1°C 34.2°F1.2°C 94% Calm Calm -- 30.18 in1022.0 mb - 0.00 in0.0 mm 0.00 in0.0 mm
01:54 AM 35.8°F2.1°C 34.2°F1.2°C 94% Calm Calm -- 30.18 in1022.0 mb - 0.00 in0.0 mm 0.00 in0.0 mm
01:53 AM 35.8°F2.1°C 34.2°F1.2°C 94% Calm Calm -- 30.18 in1022.0 mb - 0.00 in0.0 mm 0.00 in0.0 mm
01:52 AM 35.8°F2.1°C 34.2°F1.2°C 94% Calm Calm -- 30.18 in1022.0 mb - 0.00 in0.0 mm 0.00 in0.0 mm
01:51 AM 35.8°F2.1°C 34.2°F1.2°C 94% Calm Calm -- 30.18 in1022.0 mb - 0.00 in0.0 mm 0.00 in0.0 mm
01:50 AM 35.9°F2.2°C 34.3°F1.3°C 94% Calm Calm -- 30.19 in1022.4 mb - 0.00 in0.0 mm 0.00 in0.0 mm
01:49 AM 36.0°F2.2°C 34.4°F1.3°C 94% Calm Calm -- 30.19 in1022.4 mb - 0.00 in0.0 mm 0.00 in0.0 mm
01:48 AM 36.0°F2.2°C 34.4°F1.3°C 94% Calm Calm -- 30.19 in1022.4 mb - 0.00 in0.0 mm 0.00 in0.0 mm
01:47 AM 36.0°F2.2°C 34.4°F1.3°C 94% Calm Calm -- 30.19 in1022.4 mb - 0.00 in0.0 mm 0.00 in0.0 mm
01:46 AM 36.0°F2.2°C 34.4°F1.3°C 94% Calm Calm -- 30.19 in1022.4 mb - 0.00 in0.0 mm 0.00 in0.0 mm
01:45 AM 36.0°F2.2°C 34.4°F1.3°C 94% Calm Calm -- 30.19 in1022.4 mb - 0.00 in0.0 mm 0.00 in0.0 mm
01:44 AM 36.0°F2.2°C 34.4°F1.3°C 94% 1.2 mph W1.9 kmh W 1.2 mph1.9 kmh 30.19 in1022.4 mb - 0.00 in0.0 mm 0.00 in0.0 mm
01:43 AM 35.8°F2.1°C 34.2°F1.2°C 94% Calm Calm 1.2 mph1.9 kmh 30.19 in1022.4 mb - 0.00 in0.0 mm 0.00 in0.0 mm
01:42 AM 35.8°F2.1°C 34.2°F1.2°C 94% Calm Calm -- 30.19 in1022.4 mb - 0.00 in0.0 mm 0.00 in0.0 mm
01:41 AM 35.8°F2.1°C 34.2°F1.2°C 94% 1.2 mph W1.9 kmh W -- 30.19 in1022.4 mb - 0.00 in0.0 mm 0.00 in0.0 mm
01:40 AM 35.8°F2.1°C 34.2°F1.2°C 94% 1.2 mph W1.9 kmh W 1.2 mph1.9 kmh 30.19 in1022.4 mb - 0.00 in0.0 mm 0.00 in0.0 mm
01:39 AM 35.8°F2.1°C 34.2°F1.2°C 94% Calm Calm 1.2 mph1.9 kmh 30.19 in1022.4 mb - 0.00 in0.0 mm 0.00 in0.0 mm
01:38 AM 35.8°F2.1°C 34.2°F1.2°C 94% Calm Calm -- 30.19 in1022.4 mb - 0.00 in0.0 mm 0.00 in0.0 mm
01:37 AM 35.6°F2.0°C 34.1°F1.2°C 94% Calm Calm -- 30.19 in1022.4 mb - 0.00 in0.0 mm 0.00 in0.0 mm
01:36 AM 35.6°F2.0°C 34.0°F1.1°C 94% Calm Calm -- 30.19 in1022.4 mb - 0.00 in0.0 mm 0.00 in0.0 mm
01:35 AM 35.6°F2.0°C 34.0°F1.1°C 94% 1.2 mph NW1.9 kmh NW 2.3 mph3.7 kmh 30.19 in1022.4 mb - 0.00 in0.0 mm 0.00 in0.0 mm
01:34 AM 35.5°F1.9°C 33.9°F1.1°C 94% 1.2 mph NW1.9 kmh NW 2.3 mph3.7 kmh 30.19 in1022.4 mb - 0.00 in0.0 mm 0.00 in0.0 mm
01:33 AM 35.4°F1.9°C 33.8°F1.0°C 94% Calm Calm 1.2 mph1.9 kmh 30.19 in1022.4 mb - 0.00 in0.0 mm 0.00 in0.0 mm
01:32 AM 35.4°F1.9°C 33.8°F1.0°C 94% 1.2 mph WNW1.9 kmh WNW 1.2 mph1.9 kmh 30.19 in1022.4 mb - 0.00 in0.0 mm 0.00 in0.0 mm
01:31 AM 35.4°F1.9°C 33.8°F1.0°C 94% Calm Calm 1.2 mph1.9 kmh 30.19 in1022.4 mb - 0.00 in0.0 mm 0.00 in0.0 mm
01:30 AM 35.5°F1.9°C 34.0°F1.1°C 94% Calm Calm -- 30.19 in1022.4 mb - 0.00 in0.0 mm 0.00 in0.0 mm
01:29 AM 35.6°F2.0°C 34.0°F1.1°C 94% Calm Calm -- 30.19 in1022.4 mb - 0.00 in0.0 mm 0.00 in0.0 mm
01:28 AM 35.6°F2.0°C 34.0°F1.1°C 94% Calm Calm -- 30.19 in1022.4 mb - 0.00 in0.0 mm 0.00 in0.0 mm
01:27 AM 35.6°F2.0°C 34.0°F1.1°C 94% Calm Calm -- 30.19 in1022.4 mb - 0.00 in0.0 mm 0.00 in0.0 mm
01:26 AM 35.6°F2.0°C 34.0°F1.1°C 94% Calm Calm -- 30.19 in1022.4 mb - 0.00 in0.0 mm 0.00 in0.0 mm
01:25 AM 35.6°F2.0°C 34.0°F1.1°C 94% Calm Calm -- 30.19 in1022.4 mb - 0.00 in0.0 mm 0.00 in0.0 mm
01:24 AM 35.6°F2.0°C 34.0°F1.1°C 94% Calm Calm -- 30.19 in1022.4 mb - 0.00 in0.0 mm 0.00 in0.0 mm
01:23 AM 35.6°F2.0°C 34.0°F1.1°C 94% Calm Calm -- 30.19 in1022.4 mb - 0.00 in0.0 mm 0.00 in0.0 mm
01:22 AM 35.6°F2.0°C 34.0°F1.1°C 94% Calm Calm -- 30.19 in1022.4 mb - 0.00 in0.0 mm 0.00 in0.0 mm
01:21 AM 35.6°F2.0°C 34.0°F1.1°C 94% Calm Calm 1.2 mph1.9 kmh 30.19 in1022.4 mb - 0.00 in0.0 mm 0.00 in0.0 mm
01:20 AM 35.6°F2.0°C 34.0°F1.1°C 94% Calm Calm -- 30.19 in1022.4 mb - 0.00 in0.0 mm 0.00 in0.0 mm
01:19 AM 35.6°F2.0°C 34.0°F1.1°C 94% Calm Calm -- 30.19 in1022.4 mb - 0.00 in0.0 mm 0.00 in0.0 mm
01:18 AM 35.6°F2.0°C 34.1°F1.2°C 94% Calm Calm -- 30.19 in1022.4 mb - 0.00 in0.0 mm 0.00 in0.0 mm
01:17 AM 35.8°F2.1°C 34.2°F1.2°C 94% Calm Calm -- 30.19 in1022.4 mb - 0.00 in0.0 mm 0.00 in0.0 mm
01:16 AM 35.8°F2.1°C 34.2°F1.2°C 94% Calm Calm -- 30.19 in1022.4 mb - 0.00 in0.0 mm 0.00 in0.0 mm
01:15 AM 35.7°F2.1°C 34.1°F1.2°C 94% 1.2 mph WSW1.9 kmh WSW 1.2 mph1.9 kmh 30.19 in1022.4 mb - 0.00 in0.0 mm 0.00 in0.0 mm
01:14 AM 35.6°F2.0°C 34.0°F1.1°C 94% Calm Calm 1.2 mph1.9 kmh 30.20 in1022.7 mb - 0.00 in0.0 mm 0.00 in0.0 mm
01:13 AM 35.5°F1.9°C 34.0°F1.1°C 94% 1.2 mph WNW1.9 kmh WNW 1.2 mph1.9 kmh 30.20 in1022.7 mb - 0.00 in0.0 mm 0.00 in0.0 mm
01:12 AM 35.4°F1.9°C 33.8°F1.0°C 94% 1.2 mph WNW1.9 kmh WNW 1.2 mph1.9 kmh 30.20 in1022.7 mb - 0.00 in0.0 mm 0.00 in0.0 mm
01:11 AM 35.4°F1.9°C 34.1°F1.2°C 95% Calm Calm 1.2 mph1.9 kmh 30.20 in1022.7 mb - 0.00 in0.0 mm 0.00 in0.0 mm
01:10 AM 35.4°F1.9°C 34.1°F1.2°C 95% 1.2 mph NNW1.9 kmh NNW 1.2 mph1.9 kmh 30.20 in1022.7 mb - 0.00 in0.0 mm 0.00 in0.0 mm
01:09 AM 35.4°F1.9°C 34.1°F1.2°C 95% Calm Calm 1.2 mph1.9 kmh 30.20 in1022.7 mb - 0.00 in0.0 mm 0.00 in0.0 mm
01:08 AM 35.4°F1.9°C 34.1°F1.2°C 95% Calm Calm -- 30.20 in1022.7 mb - 0.00 in0.0 mm 0.00 in0.0 mm
01:07 AM 35.4°F1.9°C 34.1°F1.2°C 95% Calm Calm -- 30.20 in1022.7 mb - 0.00 in0.0 mm 0.00 in0.0 mm
01:06 AM 35.4°F1.9°C 34.1°F1.2°C 95% Calm Calm 1.2 mph1.9 kmh 30.20 in1022.7 mb - 0.00 in0.0 mm 0.00 in0.0 mm
01:05 AM 35.4°F1.9°C 34.1°F1.2°C 95% Calm Calm 1.2 mph1.9 kmh 30.20 in1022.7 mb - 0.00 in0.0 mm 0.00 in0.0 mm
01:04 AM 35.4°F1.9°C 34.1°F1.2°C 95% Calm Calm 1.2 mph1.9 kmh 30.20 in1022.7 mb - 0.00 in0.0 mm 0.00 in0.0 mm
01:03 AM 35.4°F1.9°C 34.1°F1.2°C 95% 1.2 mph NW1.9 kmh NW 1.2 mph1.9 kmh 30.20 in1022.7 mb - 0.00 in0.0 mm 0.00 in0.0 mm
01:02 AM 35.4°F1.9°C 34.1°F1.2°C 95% 1.2 mph NW1.9 kmh NW 1.2 mph1.9 kmh 30.20 in1022.7 mb - 0.00 in0.0 mm 0.00 in0.0 mm
01:01 AM 35.2°F1.8°C 33.9°F1.1°C 95% Calm Calm 2.3 mph3.7 kmh 30.20 in1022.7 mb - 0.00 in0.0 mm 0.00 in0.0 mm
01:00 AM 35.2°F1.8°C 33.9°F1.1°C 95% Calm Calm -- 30.20 in1022.7 mb - 0.00 in0.0 mm 0.00 in0.0 mm
12:59 AM 35.2°F1.8°C 33.9°F1.1°C 95% 1.2 mph NW1.9 kmh NW 1.2 mph1.9 kmh 30.20 in1022.7 mb - 0.00 in0.0 mm 0.00 in0.0 mm
12:58 AM 35.2°F1.8°C 33.9°F1.1°C 95% 2.3 mph N3.7 kmh N 1.2 mph1.9 kmh 30.20 in1022.7 mb - 0.00 in0.0 mm 0.00 in0.0 mm
12:57 AM 35.2°F1.8°C 33.9°F1.1°C 95% 2.3 mph N3.7 kmh N 2.3 mph3.7 kmh 30.20 in1022.7 mb - 0.00 in0.0 mm 0.00 in0.0 mm
12:56 AM 35.0°F1.7°C 34.0°F1.1°C 96% 1.2 mph NNW1.9 kmh NNW 2.3 mph3.7 kmh 30.20 in1022.7 mb - 0.00 in0.0 mm 0.00 in0.0 mm
12:55 AM 34.8°F1.6°C 33.8°F1.0°C 96% Calm Calm 2.3 mph3.7 kmh 30.20 in1022.7 mb - 0.00 in0.0 mm 0.00 in0.0 mm
12:54 AM 34.7°F1.5°C 33.7°F0.9°C 96% Calm Calm -- 30.20 in1022.7 mb - 0.00 in0.0 mm 0.00 in0.0 mm
12:53 AM 34.3°F1.3°C 33.3°F0.7°C 96% Calm Calm 1.2 mph1.9 kmh 30.20 in1022.7 mb - 0.00 in0.0 mm 0.00 in0.0 mm
12:52 AM 34.3°F1.3°C 33.3°F0.7°C 96% Calm Calm 1.2 mph1.9 kmh 30.20 in1022.7 mb - 0.00 in0.0 mm 0.00 in0.0 mm
12:51 AM 34.3°F1.3°C 33.3°F0.7°C 96% Calm Calm -- 30.20 in1022.7 mb - 0.00 in0.0 mm 0.00 in0.0 mm
12:50 AM 34.3°F1.3°C 33.3°F0.7°C 96% 1.2 mph NW1.9 kmh NW 1.2 mph1.9 kmh 30.20 in1022.7 mb - 0.00 in0.0 mm 0.00 in0.0 mm
12:49 AM 34.3°F1.3°C 33.0°F0.6°C 95% Calm Calm 1.2 mph1.9 kmh 30.20 in1022.7 mb - 0.00 in0.0 mm 0.00 in0.0 mm
12:48 AM 34.3°F1.3°C 33.0°F0.6°C 95% Calm Calm -- 30.20 in1022.7 mb - 0.00 in0.0 mm 0.00 in0.0 mm
12:47 AM 34.4°F1.3°C 33.1°F0.6°C 95% Calm Calm -- 30.20 in1022.7 mb - 0.00 in0.0 mm 0.00 in0.0 mm
12:46 AM 34.5°F1.4°C 33.2°F0.7°C 95% Calm Calm -- 30.20 in1022.7 mb - 0.00 in0.0 mm 0.00 in0.0 mm
12:45 AM 34.5°F1.4°C 33.2°F0.7°C 95% Calm Calm -- 30.20 in1022.7 mb - 0.00 in0.0 mm 0.00 in0.0 mm
12:44 AM 34.5°F1.4°C 33.2°F0.7°C 95% Calm Calm -- 30.20 in1022.7 mb - 0.00 in0.0 mm 0.00 in0.0 mm
12:43 AM 34.5°F1.4°C 33.2°F0.7°C 95% Calm Calm -- 30.20 in1022.7 mb - 0.00 in0.0 mm 0.00 in0.0 mm
12:42 AM 34.6°F1.4°C 33.3°F0.7°C 95% Calm Calm -- 30.20 in1022.7 mb - 0.00 in0.0 mm 0.00 in0.0 mm
12:41 AM 34.7°F1.5°C 33.2°F0.7°C 94% Calm Calm -- 30.20 in1022.7 mb - 0.00 in0.0 mm 0.00 in0.0 mm
12:40 AM 34.9°F1.6°C 33.3°F0.7°C 94% Calm Calm -- 30.20 in1022.7 mb - 0.00 in0.0 mm 0.00 in0.0 mm
12:39 AM 34.9°F1.6°C 33.3°F0.7°C 94% Calm Calm -- 30.20 in1022.7 mb - 0.00 in0.0 mm 0.00 in0.0 mm
12:38 AM 34.9°F1.6°C 33.3°F0.7°C 94% Calm Calm -- 30.20 in1022.7 mb - 0.00 in0.0 mm 0.00 in0.0 mm
12:37 AM 34.9°F1.6°C 33.1°F0.6°C 93% Calm Calm -- 30.20 in1022.7 mb - 0.00 in0.0 mm 0.00 in0.0 mm
12:36 AM 35.1°F1.7°C 33.3°F0.7°C 93% Calm Calm -- 30.20 in1022.7 mb - 0.00 in0.0 mm 0.00 in0.0 mm
12:35 AM 35.1°F1.7°C 33.3°F0.7°C 93% Calm Calm -- 30.20 in1022.7 mb - 0.00 in0.0 mm 0.00 in0.0 mm
12:34 AM 35.1°F1.7°C 33.3°F0.7°C 93% Calm Calm -- 30.20 in1022.7 mb - 0.00 in0.0 mm 0.00 in0.0 mm
12:33 AM 35.1°F1.7°C 33.3°F0.7°C 93% Calm Calm -- 30.20 in1022.7 mb - 0.00 in0.0 mm 0.00 in0.0 mm
12:32 AM 35.2°F1.8°C 33.4°F0.8°C 93% Calm Calm -- 30.20 in1022.7 mb - 0.00 in0.0 mm 0.00 in0.0 mm
12:31 AM 35.2°F1.8°C 33.4°F0.8°C 93% Calm Calm -- 30.20 in1022.7 mb - 0.00 in0.0 mm 0.00 in0.0 mm
12:30 AM 35.2°F1.8°C 33.4°F0.8°C 93% Calm Calm -- 30.20 in1022.7 mb - 0.00 in0.0 mm 0.00 in0.0 mm
12:29 AM 35.3°F1.8°C 33.5°F0.8°C 93% Calm Calm -- 30.20 in1022.7 mb - 0.00 in0.0 mm 0.00 in0.0 mm
12:28 AM 35.2°F1.8°C 33.4°F0.8°C 93% Calm Calm -- 30.20 in1022.7 mb - 0.00 in0.0 mm 0.00 in0.0 mm
12:27 AM 35.3°F1.8°C 33.2°F0.7°C 92% Calm Calm -- 30.20 in1022.7 mb - 0.00 in0.0 mm 0.00 in0.0 mm
12:26 AM 35.4°F1.9°C 33.3°F0.7°C 92% Calm Calm -- 30.20 in1022.7 mb - 0.00 in0.0 mm 0.00 in0.0 mm
12:25 AM 35.6°F2.0°C 33.5°F0.8°C 92% Calm Calm -- 30.20 in1022.7 mb - 0.00 in0.0 mm 0.00 in0.0 mm
12:24 AM 35.8°F2.1°C 33.7°F0.9°C 92% Calm Calm -- 30.20 in1022.7 mb - 0.00 in0.0 mm 0.00 in0.0 mm
12:23 AM 35.8°F2.1°C 33.4°F0.8°C 91% Calm Calm -- 30.20 in1022.7 mb - 0.00 in0.0 mm 0.00 in0.0 mm
12:22 AM 36.0°F2.2°C 33.6°F0.9°C 91% Calm Calm -- 30.20 in1022.7 mb - 0.00 in0.0 mm 0.00 in0.0 mm
12:21 AM 36.0°F2.2°C 33.6°F0.9°C 91% Calm Calm -- 30.20 in1022.7 mb - 0.00 in0.0 mm 0.00 in0.0 mm
12:20 AM 36.0°F2.2°C 33.6°F0.9°C 91% Calm Calm -- 30.20 in1022.7 mb - 0.00 in0.0 mm 0.00 in0.0 mm
12:19 AM 36.0°F2.2°C 33.6°F0.9°C 91% Calm Calm -- 30.20 in1022.7 mb - 0.00 in0.0 mm 0.00 in0.0 mm
12:18 AM 36.1°F2.3°C 33.7°F0.9°C 91% Calm Calm -- 30.20 in1022.7 mb - 0.00 in0.0 mm 0.00 in0.0 mm
12:17 AM 36.1°F2.3°C 33.8°F1.0°C 91% Calm Calm -- 30.20 in1022.7 mb - 0.00 in0.0 mm 0.00 in0.0 mm
12:16 AM 36.3°F2.4°C 33.9°F1.1°C 91% Calm Calm -- 30.20 in1022.7 mb - 0.00 in0.0 mm 0.00 in0.0 mm
12:15 AM 36.3°F2.4°C 33.6°F0.9°C 90% Calm Calm -- 30.20 in1022.7 mb - 0.00 in0.0 mm 0.00 in0.0 mm
12:14 AM 36.5°F2.5°C 33.8°F1.0°C 90% Calm Calm -- 30.20 in1022.7 mb - 0.00 in0.0 mm 0.00 in0.0 mm
12:13 AM 36.5°F2.5°C 33.8°F1.0°C 90% Calm Calm -- 30.20 in1022.7 mb - 0.00 in0.0 mm 0.00 in0.0 mm
12:12 AM 36.5°F2.5°C 33.6°F0.9°C 89% Calm Calm -- 30.20 in1022.7 mb - 0.00 in0.0 mm 0.00 in0.0 mm
12:11 AM 36.7°F2.6°C 33.8°F1.0°C 89% Calm Calm -- 30.20 in1022.7 mb - 0.00 in0.0 mm 0.00 in0.0 mm
12:10 AM 36.7°F2.6°C 33.8°F1.0°C 89% Calm Calm -- 30.20 in1022.7 mb - 0.00 in0.0 mm 0.00 in0.0 mm
12:09 AM 36.8°F2.7°C 33.9°F1.1°C 89% Calm Calm -- 30.20 in1022.7 mb - 0.00 in0.0 mm 0.00 in0.0 mm
12:08 AM 37.0°F2.8°C 33.7°F0.9°C 88% Calm Calm -- 30.20 in1022.7 mb - 0.00 in0.0 mm 0.00 in0.0 mm
12:07 AM 37.0°F2.8°C 33.8°F1.0°C 88% Calm Calm -- 30.20 in1022.7 mb - 0.00 in0.0 mm 0.00 in0.0 mm
12:06 AM 37.2°F2.9°C 33.9°F1.1°C 88% Calm Calm -- 30.20 in1022.7 mb - 0.00 in0.0 mm 0.00 in0.0 mm
12:05 AM 37.2°F2.9°C 34.0°F1.1°C 88% Calm Calm -- 30.20 in1022.7 mb - 0.00 in0.0 mm 0.00 in0.0 mm
12:04 AM 37.3°F2.9°C 34.1°F1.2°C 88% Calm Calm -- 30.20 in1022.7 mb - 0.00 in0.0 mm 0.00 in0.0 mm
12:03 AM 37.4°F3.0°C 34.2°F1.2°C 88% Calm Calm -- 30.20 in1022.7 mb - 0.00 in0.0 mm 0.00 in0.0 mm
12:02 AM 37.6°F3.1°C 34.1°F1.2°C 87% Calm Calm -- 30.20 in1022.7 mb - 0.00 in0.0 mm 0.00 in0.0 mm
12:01 AM 37.6°F3.1°C 34.1°F1.2°C 87% Calm Calm -- 30.20 in1022.7 mb - 0.00 in0.0 mm 0.00 in0.0 mm
12:00 AM 37.6°F3.1°C 34.1°F1.2°C 87% Calm Calm -- 30.20 in1022.7 mb - 0.00 in0.0 mm 0.00 in0.0 mm